<?xml version="1.0" encoding="UTF-8"?>
<gpx creator="Alpha 200" version="1.1" schemaLocation="http://www.topografix.com/GPX/1/1 http://www.topografix.com/GPX/1/1/gpx.xsd http://www.garmin.com/xmlschemas/GpxExtensions/v3 http://www8.garmin.com/xmlschemas/GpxExtensionsv3.xsd http://www.garmin.com/xmlschemas/TrackStatsExtension/v1 http://www8.garmin.com/xmlschemas/TrackStatsExtension.xsd http://www.garmin.com/xmlschemas/WaypointExtension/v1 http://www8.garmin.com/xmlschemas/WaypointExtensionv1.xsd http://www.garmin.com/xmlschemas/TrackPointExtension/v1 http://www.garmin.com/xmlschemas/TrackPointExtensionv1.xsd" xmlns="http://www.topografix.com/GPX/1/1" xmlns:xsi="http://www.w3.org/2001/XMLSchema-instance" xsi:schemaLocation="http://www.topografix.com/GPX/1/1 http://www.topografix.com/GPX/1/1/gpx.xsd http://www.garmin.com/xmlschemas/GpxExtensions/v3 http://www.garmin.com/xmlschemas/GpxExtensionsv3.xsd http://www.garmin.com/xmlschemas/TrackPointExtension/v1 http://www.garmin.com/xmlschemas/TrackPointExtensionv1.xsd http://www.garmin.com/xmlschemas/PowerExtension/v1 http://www.garmin.com/xmlschemas/PowerExtensionv1.xsd http://www.topografix.com/GPX/gpx_style/0/2 http://www.topografix.com/GPX/gpx_style/0/2/gpx_style.xsd" xmlns:gpxtpx="http://www.garmin.com/xmlschemas/TrackPointExtension/v1" xmlns:gpxx="http://www.garmin.com/xmlschemas/GpxExtensions/v3" xmlns:gpxpx="http://www.garmin.com/xmlschemas/PowerExtension/v1" xmlns:gpx_style="http://www.topografix.com/GPX/gpx_style/0/2">
  <metadata>
    <name>Трек_2026-04-22 15.48.16</name>
    <author>
      <name>gpx.studio</name>
      <link href="https://gpx.studio"/>
    </author>
    <link href="http://www.garmin.com">
      <text>Garmin International</text>
    </link>
    <time>2026-04-22T12:48:29.000Z</time>
  </metadata>
  <trk>
    <name>2026-04-22 15:48:16</name>
    <trkseg>
      <trkpt lat="59.0924958978" lon="29.9881572649">
        <ele>79.45</ele>
        <time>2026-04-22T07:41:49.000Z</time>
      </trkpt>
      <trkpt lat="59.0925366338" lon="29.9882344622">
        <ele>80.89</ele>
        <time>2026-04-22T07:42:17.000Z</time>
      </trkpt>
      <trkpt lat="59.0925324429" lon="29.9885674752">
        <ele>80.89</ele>
        <time>2026-04-22T07:42:41.000Z</time>
      </trkpt>
      <trkpt lat="59.092652807" lon="29.9886391405">
        <ele>80.41</ele>
        <time>2026-04-22T07:43:01.000Z</time>
      </trkpt>
      <trkpt lat="59.0926839039" lon="29.9888315052">
        <ele>80.41</ele>
        <time>2026-04-22T07:43:20.000Z</time>
      </trkpt>
      <trkpt lat="59.0926844068" lon="29.988845">
        <ele>80.89</ele>
        <time>2026-04-22T07:43:42.000Z</time>
      </trkpt>
      <trkpt lat="59.0926877595" lon="29.9888512865">
        <ele>80.89</ele>
        <time>2026-04-22T07:44:17.000Z</time>
      </trkpt>
      <trkpt lat="59.0926989075" lon="29.9888554774">
        <ele>80.89</ele>
        <time>2026-04-22T07:45:10.000Z</time>
      </trkpt>
      <trkpt lat="59.0927092172" lon="29.9889092892">
        <ele>80.89</ele>
        <time>2026-04-22T07:45:13.000Z</time>
      </trkpt>
      <trkpt lat="59.0927608497" lon="29.9891620874">
        <ele>80.41</ele>
        <time>2026-04-22T07:45:32.000Z</time>
      </trkpt>
      <trkpt lat="59.092870485" lon="29.9895137083">
        <ele>80.41</ele>
        <time>2026-04-22T07:45:49.000Z</time>
      </trkpt>
      <trkpt lat="59.0929796174" lon="29.9899596255">
        <ele>81.37</ele>
        <time>2026-04-22T07:46:08.000Z</time>
      </trkpt>
      <trkpt lat="59.0930834692" lon="29.9903820734">
        <ele>80.89</ele>
        <time>2026-04-22T07:46:27.000Z</time>
      </trkpt>
      <trkpt lat="59.0931684617" lon="29.9909123965">
        <ele>80.89</ele>
        <time>2026-04-22T07:46:49.000Z</time>
      </trkpt>
      <trkpt lat="59.0932858083" lon="29.9913781788">
        <ele>80.41</ele>
        <time>2026-04-22T07:47:08.000Z</time>
      </trkpt>
      <trkpt lat="59.0933401231" lon="29.9917946756">
        <ele>80.41</ele>
        <time>2026-04-22T07:47:24.000Z</time>
      </trkpt>
      <trkpt lat="59.0933899954" lon="29.9921327177">
        <ele>80.41</ele>
        <time>2026-04-22T07:47:37.000Z</time>
      </trkpt>
      <trkpt lat="59.0934681147" lon="29.992996389">
        <ele>80.41</ele>
        <time>2026-04-22T07:47:59.000Z</time>
      </trkpt>
      <trkpt lat="59.0936046559" lon="29.9936068431">
        <ele>80.41</ele>
        <time>2026-04-22T07:48:18.000Z</time>
      </trkpt>
      <trkpt lat="59.0936608985" lon="29.994039936">
        <ele>80.41</ele>
        <time>2026-04-22T07:48:32.000Z</time>
      </trkpt>
      <trkpt lat="59.0936684422" lon="29.9943800736">
        <ele>80.41</ele>
        <time>2026-04-22T07:48:45.000Z</time>
      </trkpt>
      <trkpt lat="59.0936340764" lon="29.9944476318">
        <ele>80.41</ele>
        <time>2026-04-22T07:48:49.000Z</time>
      </trkpt>
      <trkpt lat="59.0935539454" lon="29.9945570156">
        <ele>79.93</ele>
        <time>2026-04-22T07:49:09.000Z</time>
      </trkpt>
      <trkpt lat="59.0935488325" lon="29.9945550878">
        <ele>79.93</ele>
        <time>2026-04-22T07:49:31.000Z</time>
      </trkpt>
      <trkpt lat="59.0935305599" lon="29.9945453648">
        <ele>79.93</ele>
        <time>2026-04-22T07:49:33.000Z</time>
      </trkpt>
      <trkpt lat="59.0934376884" lon="29.9945797306">
        <ele>80.41</ele>
        <time>2026-04-22T07:49:41.000Z</time>
      </trkpt>
      <trkpt lat="59.0933380276" lon="29.9945778865">
        <ele>80.41</ele>
        <time>2026-04-22T07:49:50.000Z</time>
      </trkpt>
      <trkpt lat="59.0931268036" lon="29.9945814069">
        <ele>79.93</ele>
        <time>2026-04-22T07:50:07.000Z</time>
      </trkpt>
      <trkpt lat="59.0929589979" lon="29.9944827519">
        <ele>79.93</ele>
        <time>2026-04-22T07:50:19.000Z</time>
      </trkpt>
      <trkpt lat="59.0928928647" lon="29.9944368191">
        <ele>79.45</ele>
        <time>2026-04-22T07:50:23.000Z</time>
      </trkpt>
      <trkpt lat="59.0925766993" lon="29.9943733681">
        <ele>79.45</ele>
        <time>2026-04-22T07:50:45.000Z</time>
      </trkpt>
      <trkpt lat="59.0923516452" lon="29.9942553509">
        <ele>78.97</ele>
        <time>2026-04-22T07:51:04.000Z</time>
      </trkpt>
      <trkpt lat="59.0920483042" lon="29.9941406026">
        <ele>79.45</ele>
        <time>2026-04-22T07:51:26.000Z</time>
      </trkpt>
      <trkpt lat="59.0917770658" lon="29.9940146226">
        <ele>80.41</ele>
        <time>2026-04-22T07:51:44.000Z</time>
      </trkpt>
      <trkpt lat="59.0915732179" lon="29.9939418677">
        <ele>80.41</ele>
        <time>2026-04-22T07:51:58.000Z</time>
      </trkpt>
      <trkpt lat="59.0914753173" lon="29.9940129463">
        <ele>80.89</ele>
        <time>2026-04-22T07:52:14.000Z</time>
      </trkpt>
      <trkpt lat="59.0914251935" lon="29.9939969368">
        <ele>80.41</ele>
        <time>2026-04-22T07:52:45.000Z</time>
      </trkpt>
      <trkpt lat="59.0913615748" lon="29.9939120281">
        <ele>80.89</ele>
        <time>2026-04-22T07:52:51.000Z</time>
      </trkpt>
      <trkpt lat="59.0912811086" lon="29.9938894808">
        <ele>79.93</ele>
        <time>2026-04-22T07:52:59.000Z</time>
      </trkpt>
      <trkpt lat="59.091089163" lon="29.9937510956">
        <ele>80.41</ele>
        <time>2026-04-22T07:53:16.000Z</time>
      </trkpt>
      <trkpt lat="59.0908567328" lon="29.9936746527">
        <ele>81.85</ele>
        <time>2026-04-22T07:53:34.000Z</time>
      </trkpt>
      <trkpt lat="59.090572251" lon="29.9934692122">
        <ele>81.85</ele>
        <time>2026-04-22T07:53:52.000Z</time>
      </trkpt>
      <trkpt lat="59.0904803015" lon="29.9934115447">
        <ele>82.33</ele>
        <time>2026-04-22T07:53:59.000Z</time>
      </trkpt>
      <trkpt lat="59.0901564248" lon="29.9933688808">
        <ele>81.85</ele>
        <time>2026-04-22T07:54:21.000Z</time>
      </trkpt>
      <trkpt lat="59.0901150182" lon="29.9933629297">
        <ele>82.33</ele>
        <time>2026-04-22T07:54:24.000Z</time>
      </trkpt>
      <trkpt lat="59.0900624637" lon="29.9933013227">
        <ele>82.33</ele>
        <time>2026-04-22T07:54:28.000Z</time>
      </trkpt>
      <trkpt lat="59.0897783171" lon="29.9931195192">
        <ele>82.81</ele>
        <time>2026-04-22T07:54:48.000Z</time>
      </trkpt>
      <trkpt lat="59.0895792469" lon="29.9930889253">
        <ele>83.29</ele>
        <time>2026-04-22T07:55:02.000Z</time>
      </trkpt>
      <trkpt lat="59.0893023927" lon="29.9930275697">
        <ele>84.25</ele>
        <time>2026-04-22T07:55:22.000Z</time>
      </trkpt>
      <trkpt lat="59.0891678631" lon="29.9929801282">
        <ele>84.25</ele>
        <time>2026-04-22T07:55:32.000Z</time>
      </trkpt>
      <trkpt lat="59.0888936073" lon="29.9928649608">
        <ele>85.21</ele>
        <time>2026-04-22T07:55:51.000Z</time>
      </trkpt>
      <trkpt lat="59.0887892526" lon="29.9928312656">
        <ele>84.73</ele>
        <time>2026-04-22T07:55:58.000Z</time>
      </trkpt>
      <trkpt lat="59.0886636078" lon="29.9929492828">
        <ele>84.25</ele>
        <time>2026-04-22T07:56:13.000Z</time>
      </trkpt>
      <trkpt lat="59.0885558166" lon="29.9930201937">
        <ele>83.77</ele>
        <time>2026-04-22T07:56:19.000Z</time>
      </trkpt>
      <trkpt lat="59.0884640347" lon="29.9930455908">
        <ele>83.77</ele>
        <time>2026-04-22T07:56:36.000Z</time>
      </trkpt>
      <trkpt lat="59.0883929562" lon="29.9929228798">
        <ele>83.29</ele>
        <time>2026-04-22T07:57:01.000Z</time>
      </trkpt>
      <trkpt lat="59.0883816406" lon="29.9929113127">
        <ele>82.81</ele>
        <time>2026-04-22T07:57:02.000Z</time>
      </trkpt>
      <trkpt lat="59.0883510467" lon="29.9927769508">
        <ele>82.81</ele>
        <time>2026-04-22T07:57:06.000Z</time>
      </trkpt>
      <trkpt lat="59.0882844944" lon="29.9926661421">
        <ele>82.81</ele>
        <time>2026-04-22T07:57:13.000Z</time>
      </trkpt>
      <trkpt lat="59.0881205443" lon="29.9927159306">
        <ele>83.29</ele>
        <time>2026-04-22T07:57:31.000Z</time>
      </trkpt>
      <trkpt lat="59.0880478732" lon="29.9927735981">
        <ele>83.77</ele>
        <time>2026-04-22T07:57:36.000Z</time>
      </trkpt>
      <trkpt lat="59.0880216379" lon="29.9927991629">
        <ele>83.29</ele>
        <time>2026-04-22T07:57:38.000Z</time>
      </trkpt>
      <trkpt lat="59.087975705" lon="29.9928203691">
        <ele>83.29</ele>
        <time>2026-04-22T07:57:44.000Z</time>
      </trkpt>
      <trkpt lat="59.0877939854" lon="29.9927569181">
        <ele>84.25</ele>
        <time>2026-04-22T07:57:58.000Z</time>
      </trkpt>
      <trkpt lat="59.087781664" lon="29.9927509669">
        <ele>84.25</ele>
        <time>2026-04-22T07:57:59.000Z</time>
      </trkpt>
      <trkpt lat="59.0876623057" lon="29.9927290902">
        <ele>83.29</ele>
        <time>2026-04-22T07:58:09.000Z</time>
      </trkpt>
      <trkpt lat="59.0876255929" lon="29.9927307665">
        <ele>82.81</ele>
        <time>2026-04-22T07:58:12.000Z</time>
      </trkpt>
      <trkpt lat="59.08742317" lon="29.9926342908">
        <ele>81.85</ele>
        <time>2026-04-22T07:58:30.000Z</time>
      </trkpt>
      <trkpt lat="59.0873067454" lon="29.9925065506">
        <ele>82.33</ele>
        <time>2026-04-22T07:58:41.000Z</time>
      </trkpt>
      <trkpt lat="59.0872055758" lon="29.992348887">
        <ele>83.77</ele>
        <time>2026-04-22T07:58:51.000Z</time>
      </trkpt>
      <trkpt lat="59.0869415458" lon="29.992229864">
        <ele>83.29</ele>
        <time>2026-04-22T07:59:11.000Z</time>
      </trkpt>
      <trkpt lat="59.0866183396" lon="29.9921457935">
        <ele>83.29</ele>
        <time>2026-04-22T07:59:34.000Z</time>
      </trkpt>
      <trkpt lat="59.0864222031" lon="29.9920551851">
        <ele>83.77</ele>
        <time>2026-04-22T07:59:47.000Z</time>
      </trkpt>
      <trkpt lat="59.0861780383" lon="29.9919916503">
        <ele>84.25</ele>
        <time>2026-04-22T08:00:04.000Z</time>
      </trkpt>
      <trkpt lat="59.0861638729" lon="29.9919904768">
        <ele>84.25</ele>
        <time>2026-04-22T08:00:05.000Z</time>
      </trkpt>
      <trkpt lat="59.0858731046" lon="29.9918504152">
        <ele>84.25</ele>
        <time>2026-04-22T08:00:26.000Z</time>
      </trkpt>
      <trkpt lat="59.0856458712" lon="29.9917265307">
        <ele>85.69</ele>
        <time>2026-04-22T08:00:44.000Z</time>
      </trkpt>
      <trkpt lat="59.0853975993" lon="29.9917261954">
        <ele>85.21</ele>
        <time>2026-04-22T08:01:03.000Z</time>
      </trkpt>
      <trkpt lat="59.0853292868" lon="29.9918146245">
        <ele>85.69</ele>
        <time>2026-04-22T08:01:10.000Z</time>
      </trkpt>
      <trkpt lat="59.0852479823" lon="29.9920504075">
        <ele>86.18</ele>
        <time>2026-04-22T08:01:27.000Z</time>
      </trkpt>
      <trkpt lat="59.0852587111" lon="29.9920221604">
        <ele>86.18</ele>
        <time>2026-04-22T08:01:53.000Z</time>
      </trkpt>
      <trkpt lat="59.0852119401" lon="29.9919491541">
        <ele>86.18</ele>
        <time>2026-04-22T08:01:57.000Z</time>
      </trkpt>
      <trkpt lat="59.0851361677" lon="29.9919158779">
        <ele>86.18</ele>
        <time>2026-04-22T08:02:04.000Z</time>
      </trkpt>
      <trkpt lat="59.0850129537" lon="29.9918379262">
        <ele>85.69</ele>
        <time>2026-04-22T08:02:22.000Z</time>
      </trkpt>
      <trkpt lat="59.0849991236" lon="29.9918252695">
        <ele>85.69</ele>
        <time>2026-04-22T08:02:23.000Z</time>
      </trkpt>
      <trkpt lat="59.084859984" lon="29.991735667">
        <ele>85.21</ele>
        <time>2026-04-22T08:02:32.000Z</time>
      </trkpt>
      <trkpt lat="59.0846618358" lon="29.9916386046">
        <ele>84.73</ele>
        <time>2026-04-22T08:02:49.000Z</time>
      </trkpt>
      <trkpt lat="59.0845390409" lon="29.9916028976">
        <ele>85.21</ele>
        <time>2026-04-22T08:03:02.000Z</time>
      </trkpt>
      <trkpt lat="59.0843868256" lon="29.9916815199">
        <ele>85.21</ele>
        <time>2026-04-22T08:03:17.000Z</time>
      </trkpt>
      <trkpt lat="59.0842941217" lon="29.9916885607">
        <ele>85.21</ele>
        <time>2026-04-22T08:03:24.000Z</time>
      </trkpt>
      <trkpt lat="59.0840932913" lon="29.9916559551">
        <ele>85.69</ele>
        <time>2026-04-22T08:03:41.000Z</time>
      </trkpt>
      <trkpt lat="59.0840301756" lon="29.9915986229">
        <ele>86.18</ele>
        <time>2026-04-22T08:04:06.000Z</time>
      </trkpt>
      <trkpt lat="59.0839894395" lon="29.9915944319">
        <ele>86.18</ele>
        <time>2026-04-22T08:04:20.000Z</time>
      </trkpt>
      <trkpt lat="59.0839466918" lon="29.9915984552">
        <ele>86.18</ele>
        <time>2026-04-22T08:04:24.000Z</time>
      </trkpt>
      <trkpt lat="59.083834542" lon="29.9915660173">
        <ele>86.66</ele>
        <time>2026-04-22T08:04:33.000Z</time>
      </trkpt>
      <trkpt lat="59.0836398304" lon="29.9915370159">
        <ele>87.14</ele>
        <time>2026-04-22T08:04:50.000Z</time>
      </trkpt>
      <trkpt lat="59.0834768862" lon="29.9914928433">
        <ele>87.14</ele>
        <time>2026-04-22T08:05:04.000Z</time>
      </trkpt>
      <trkpt lat="59.0834488906" lon="29.9914636742">
        <ele>87.14</ele>
        <time>2026-04-22T08:05:06.000Z</time>
      </trkpt>
      <trkpt lat="59.0833001118" lon="29.991361415">
        <ele>86.66</ele>
        <time>2026-04-22T08:05:17.000Z</time>
      </trkpt>
      <trkpt lat="59.0832539275" lon="29.9912906718">
        <ele>87.14</ele>
        <time>2026-04-22T08:05:21.000Z</time>
      </trkpt>
      <trkpt lat="59.0830655023" lon="29.991185395">
        <ele>87.62</ele>
        <time>2026-04-22T08:05:37.000Z</time>
      </trkpt>
      <trkpt lat="59.0829857066" lon="29.9911254644">
        <ele>87.62</ele>
        <time>2026-04-22T08:05:45.000Z</time>
      </trkpt>
      <trkpt lat="59.0828134585" lon="29.9910387117">
        <ele>87.62</ele>
        <time>2026-04-22T08:06:00.000Z</time>
      </trkpt>
      <trkpt lat="59.0825711377" lon="29.9909342732">
        <ele>88.1</ele>
        <time>2026-04-22T08:06:17.000Z</time>
      </trkpt>
      <trkpt lat="59.0823509451" lon="29.9908888433">
        <ele>88.1</ele>
        <time>2026-04-22T08:06:33.000Z</time>
      </trkpt>
      <trkpt lat="59.0821681358" lon="29.9908424914">
        <ele>87.62</ele>
        <time>2026-04-22T08:06:49.000Z</time>
      </trkpt>
      <trkpt lat="59.0820486099" lon="29.9908300862">
        <ele>87.62</ele>
        <time>2026-04-22T08:06:58.000Z</time>
      </trkpt>
      <trkpt lat="59.0819307603" lon="29.9908433296">
        <ele>88.1</ele>
        <time>2026-04-22T08:07:07.000Z</time>
      </trkpt>
      <trkpt lat="59.0817096457" lon="29.9908044375">
        <ele>88.1</ele>
        <time>2026-04-22T08:07:25.000Z</time>
      </trkpt>
      <trkpt lat="59.0814781375" lon="29.9907275755">
        <ele>88.1</ele>
        <time>2026-04-22T08:07:42.000Z</time>
      </trkpt>
      <trkpt lat="59.0814279299" lon="29.9906097259">
        <ele>88.58</ele>
        <time>2026-04-22T08:07:47.000Z</time>
      </trkpt>
      <trkpt lat="59.0812987648" lon="29.9905408267">
        <ele>88.58</ele>
        <time>2026-04-22T08:07:57.000Z</time>
      </trkpt>
      <trkpt lat="59.0812463779" lon="29.9905338697">
        <ele>88.1</ele>
        <time>2026-04-22T08:08:01.000Z</time>
      </trkpt>
      <trkpt lat="59.0810487326" lon="29.9904819019">
        <ele>87.62</ele>
        <time>2026-04-22T08:08:17.000Z</time>
      </trkpt>
      <trkpt lat="59.0809837729" lon="29.990441082">
        <ele>87.62</ele>
        <time>2026-04-22T08:08:22.000Z</time>
      </trkpt>
      <trkpt lat="59.0809442941" lon="29.9904953968">
        <ele>88.1</ele>
        <time>2026-04-22T08:08:37.000Z</time>
      </trkpt>
      <trkpt lat="59.0808783285" lon="29.9908085447">
        <ele>88.1</ele>
        <time>2026-04-22T08:09:04.000Z</time>
      </trkpt>
      <trkpt lat="59.0809558611" lon="29.991039969">
        <ele>88.58</ele>
        <time>2026-04-22T08:09:32.000Z</time>
      </trkpt>
      <trkpt lat="59.0809478145" lon="29.9910882488">
        <ele>88.58</ele>
        <time>2026-04-22T08:09:56.000Z</time>
      </trkpt>
      <trkpt lat="59.0809645783" lon="29.9913239479">
        <ele>88.58</ele>
        <time>2026-04-22T08:10:14.000Z</time>
      </trkpt>
      <trkpt lat="59.0811476391" lon="29.9918451346">
        <ele>88.58</ele>
        <time>2026-04-22T08:10:42.000Z</time>
      </trkpt>
      <trkpt lat="59.0811618883" lon="29.9921009503">
        <ele>88.58</ele>
        <time>2026-04-22T08:10:51.000Z</time>
      </trkpt>
      <trkpt lat="59.081197679" lon="29.9924920499">
        <ele>88.58</ele>
        <time>2026-04-22T08:11:08.000Z</time>
      </trkpt>
      <trkpt lat="59.0812392533" lon="29.993074676">
        <ele>88.58</ele>
        <time>2026-04-22T08:11:31.000Z</time>
      </trkpt>
      <trkpt lat="59.0812742896" lon="29.9933185056">
        <ele>88.58</ele>
        <time>2026-04-22T08:11:43.000Z</time>
      </trkpt>
      <trkpt lat="59.0812705178" lon="29.993597623">
        <ele>88.1</ele>
        <time>2026-04-22T08:12:01.000Z</time>
      </trkpt>
      <trkpt lat="59.0813694242" lon="29.9940890539">
        <ele>88.58</ele>
        <time>2026-04-22T08:12:24.000Z</time>
      </trkpt>
      <trkpt lat="59.0814577695" lon="29.9944644794">
        <ele>88.58</ele>
        <time>2026-04-22T08:12:48.000Z</time>
      </trkpt>
      <trkpt lat="59.0815792233" lon="29.9949953891">
        <ele>89.06</ele>
        <time>2026-04-22T08:13:16.000Z</time>
      </trkpt>
      <trkpt lat="59.0816040337" lon="29.9956071842">
        <ele>90.02</ele>
        <time>2026-04-22T08:13:41.000Z</time>
      </trkpt>
      <trkpt lat="59.0816285927" lon="29.9959557876">
        <ele>90.98</ele>
        <time>2026-04-22T08:13:56.000Z</time>
      </trkpt>
      <trkpt lat="59.0816466976" lon="29.9961607251">
        <ele>90.98</ele>
        <time>2026-04-22T08:14:05.000Z</time>
      </trkpt>
      <trkpt lat="59.0816448536" lon="29.996256195">
        <ele>91.94</ele>
        <time>2026-04-22T08:14:24.000Z</time>
      </trkpt>
      <trkpt lat="59.0816154331" lon="29.9963033851">
        <ele>92.42</ele>
        <time>2026-04-22T08:14:44.000Z</time>
      </trkpt>
      <trkpt lat="59.0816398244" lon="29.9963833485">
        <ele>92.42</ele>
        <time>2026-04-22T08:15:00.000Z</time>
      </trkpt>
      <trkpt lat="59.0816450212" lon="29.9964753818">
        <ele>92.42</ele>
        <time>2026-04-22T08:15:04.000Z</time>
      </trkpt>
      <trkpt lat="59.0817332827" lon="29.9969021045">
        <ele>91.94</ele>
        <time>2026-04-22T08:15:23.000Z</time>
      </trkpt>
      <trkpt lat="59.081745185" lon="29.9969663098">
        <ele>91.94</ele>
        <time>2026-04-22T08:15:28.000Z</time>
      </trkpt>
      <trkpt lat="59.0817921236" lon="29.9974212795">
        <ele>90.98</ele>
        <time>2026-04-22T08:15:47.000Z</time>
      </trkpt>
      <trkpt lat="59.0818352904" lon="29.9977456592">
        <ele>90.5</ele>
        <time>2026-04-22T08:16:00.000Z</time>
      </trkpt>
      <trkpt lat="59.0818730928" lon="29.9979692884">
        <ele>90.02</ele>
        <time>2026-04-22T08:16:09.000Z</time>
      </trkpt>
      <trkpt lat="59.0819334425" lon="29.9983536825">
        <ele>89.54</ele>
        <time>2026-04-22T08:16:28.000Z</time>
      </trkpt>
      <trkpt lat="59.0819423273" lon="29.9983964302">
        <ele>89.54</ele>
        <time>2026-04-22T08:16:30.000Z</time>
      </trkpt>
      <trkpt lat="59.0819435846" lon="29.998594746">
        <ele>89.54</ele>
        <time>2026-04-22T08:16:38.000Z</time>
      </trkpt>
      <trkpt lat="59.0819805488" lon="29.999102857">
        <ele>89.06</ele>
        <time>2026-04-22T08:16:58.000Z</time>
      </trkpt>
      <trkpt lat="59.0820231289" lon="29.9993470218">
        <ele>89.06</ele>
        <time>2026-04-22T08:17:08.000Z</time>
      </trkpt>
      <trkpt lat="59.0820782818" lon="29.9997237884">
        <ele>88.58</ele>
        <time>2026-04-22T08:17:25.000Z</time>
      </trkpt>
      <trkpt lat="59.0821488574" lon="30.0001800992">
        <ele>88.58</ele>
        <time>2026-04-22T08:17:45.000Z</time>
      </trkpt>
      <trkpt lat="59.0822103806" lon="30.0004749745">
        <ele>88.58</ele>
        <time>2026-04-22T08:18:01.000Z</time>
      </trkpt>
      <trkpt lat="59.082262516" lon="30.0011340436">
        <ele>88.58</ele>
        <time>2026-04-22T08:18:25.000Z</time>
      </trkpt>
      <trkpt lat="59.082285231" lon="30.0018843915">
        <ele>88.1</ele>
        <time>2026-04-22T08:18:54.000Z</time>
      </trkpt>
      <trkpt lat="59.082365362" lon="30.0025195722">
        <ele>88.1</ele>
        <time>2026-04-22T08:19:20.000Z</time>
      </trkpt>
      <trkpt lat="59.0823941119" lon="30.0029835943">
        <ele>88.58</ele>
        <time>2026-04-22T08:19:40.000Z</time>
      </trkpt>
      <trkpt lat="59.0825053398" lon="30.0035413262">
        <ele>89.06</ele>
        <time>2026-04-22T08:20:06.000Z</time>
      </trkpt>
      <trkpt lat="59.0825086087" lon="30.0036271568">
        <ele>89.06</ele>
        <time>2026-04-22T08:20:12.000Z</time>
      </trkpt>
      <trkpt lat="59.082534425" lon="30.0037435815">
        <ele>89.06</ele>
        <time>2026-04-22T08:20:38.000Z</time>
      </trkpt>
      <trkpt lat="59.0825668629" lon="30.0040995609">
        <ele>90.02</ele>
        <time>2026-04-22T08:21:09.000Z</time>
      </trkpt>
      <trkpt lat="59.0825656895" lon="30.0041206833">
        <ele>90.02</ele>
        <time>2026-04-22T08:21:12.000Z</time>
      </trkpt>
      <trkpt lat="59.0825836267" lon="30.0042058434">
        <ele>90.5</ele>
        <time>2026-04-22T08:21:20.000Z</time>
      </trkpt>
      <trkpt lat="59.0826003905" lon="30.0043174066">
        <ele>90.5</ele>
        <time>2026-04-22T08:21:28.000Z</time>
      </trkpt>
      <trkpt lat="59.0826209262" lon="30.0044190791">
        <ele>90.5</ele>
        <time>2026-04-22T08:21:32.000Z</time>
      </trkpt>
      <trkpt lat="59.0826721396" lon="30.0048192311">
        <ele>90.5</ele>
        <time>2026-04-22T08:21:53.000Z</time>
      </trkpt>
      <trkpt lat="59.0826842934" lon="30.0049254298">
        <ele>90.5</ele>
        <time>2026-04-22T08:22:17.000Z</time>
      </trkpt>
      <trkpt lat="59.0826942679" lon="30.0049376674">
        <ele>90.02</ele>
        <time>2026-04-22T08:22:18.000Z</time>
      </trkpt>
      <trkpt lat="59.0827943478" lon="30.0053049624">
        <ele>90.02</ele>
        <time>2026-04-22T08:22:37.000Z</time>
      </trkpt>
      <trkpt lat="59.0828995407" lon="30.0056567509">
        <ele>90.02</ele>
        <time>2026-04-22T08:22:55.000Z</time>
      </trkpt>
      <trkpt lat="59.0829510894" lon="30.0060313381">
        <ele>89.54</ele>
        <time>2026-04-22T08:23:14.000Z</time>
      </trkpt>
      <trkpt lat="59.0830431227" lon="30.006525619">
        <ele>89.54</ele>
        <time>2026-04-22T08:23:34.000Z</time>
      </trkpt>
      <trkpt lat="59.0829799231" lon="30.0070299581">
        <ele>90.02</ele>
        <time>2026-04-22T08:23:50.000Z</time>
      </trkpt>
      <trkpt lat="59.0829075873" lon="30.0073016994">
        <ele>90.02</ele>
        <time>2026-04-22T08:24:07.000Z</time>
      </trkpt>
      <trkpt lat="59.0829945076" lon="30.0076009333">
        <ele>90.02</ele>
        <time>2026-04-22T08:24:23.000Z</time>
      </trkpt>
      <trkpt lat="59.0830209944" lon="30.0076938886">
        <ele>90.02</ele>
        <time>2026-04-22T08:24:28.000Z</time>
      </trkpt>
      <trkpt lat="59.0831076633" lon="30.008085575">
        <ele>88.58</ele>
        <time>2026-04-22T08:24:47.000Z</time>
      </trkpt>
      <trkpt lat="59.083142532" lon="30.0084753335">
        <ele>89.06</ele>
        <time>2026-04-22T08:25:06.000Z</time>
      </trkpt>
      <trkpt lat="59.0831354074" lon="30.0085462444">
        <ele>89.06</ele>
        <time>2026-04-22T08:25:11.000Z</time>
      </trkpt>
      <trkpt lat="59.083187459" lon="30.0088097714">
        <ele>88.58</ele>
        <time>2026-04-22T08:25:40.000Z</time>
      </trkpt>
      <trkpt lat="59.0832336433" lon="30.0090603065">
        <ele>88.58</ele>
        <time>2026-04-22T08:25:49.000Z</time>
      </trkpt>
      <trkpt lat="59.083315786" lon="30.0097684935">
        <ele>88.58</ele>
        <time>2026-04-22T08:26:14.000Z</time>
      </trkpt>
      <trkpt lat="59.0834425204" lon="30.0104372855">
        <ele>88.58</ele>
        <time>2026-04-22T08:26:46.000Z</time>
      </trkpt>
      <trkpt lat="59.0835270099" lon="30.0112033915">
        <ele>88.58</ele>
        <time>2026-04-22T08:27:22.000Z</time>
      </trkpt>
      <trkpt lat="59.0836376511" lon="30.0120728463">
        <ele>88.58</ele>
        <time>2026-04-22T08:27:53.000Z</time>
      </trkpt>
      <trkpt lat="59.0836866852" lon="30.0126131438">
        <ele>89.06</ele>
        <time>2026-04-22T08:28:12.000Z</time>
      </trkpt>
      <trkpt lat="59.0837508906" lon="30.013117902">
        <ele>89.06</ele>
        <time>2026-04-22T08:28:32.000Z</time>
      </trkpt>
      <trkpt lat="59.0838140063" lon="30.0135419425">
        <ele>88.58</ele>
        <time>2026-04-22T08:28:49.000Z</time>
      </trkpt>
      <trkpt lat="59.0838258248" lon="30.013650991">
        <ele>88.58</ele>
        <time>2026-04-22T08:28:54.000Z</time>
      </trkpt>
      <trkpt lat="59.0838438459" lon="30.0139387418">
        <ele>89.06</ele>
        <time>2026-04-22T08:29:12.000Z</time>
      </trkpt>
      <trkpt lat="59.0838326979" lon="30.0139952358">
        <ele>89.06</ele>
        <time>2026-04-22T08:29:35.000Z</time>
      </trkpt>
      <trkpt lat="59.0838455223" lon="30.0141371414">
        <ele>89.06</ele>
        <time>2026-04-22T08:29:41.000Z</time>
      </trkpt>
      <trkpt lat="59.0838639624" lon="30.0142487045">
        <ele>89.06</ele>
        <time>2026-04-22T08:30:00.000Z</time>
      </trkpt>
      <trkpt lat="59.0838326979" lon="30.0143404026">
        <ele>89.06</ele>
        <time>2026-04-22T08:30:40.000Z</time>
      </trkpt>
      <trkpt lat="59.083820628" lon="30.0143832341">
        <ele>89.54</ele>
        <time>2026-04-22T08:31:15.000Z</time>
      </trkpt>
      <trkpt lat="59.0838582627" lon="30.0145674683">
        <ele>90.02</ele>
        <time>2026-04-22T08:31:45.000Z</time>
      </trkpt>
      <trkpt lat="59.0839019325" lon="30.0147142354">
        <ele>90.02</ele>
        <time>2026-04-22T08:31:53.000Z</time>
      </trkpt>
      <trkpt lat="59.0840217937" lon="30.0151110347">
        <ele>90.5</ele>
        <time>2026-04-22T08:32:13.000Z</time>
      </trkpt>
      <trkpt lat="59.0840880107" lon="30.0156840216">
        <ele>90.98</ele>
        <time>2026-04-22T08:32:34.000Z</time>
      </trkpt>
      <trkpt lat="59.0841604304" lon="30.0160268415">
        <ele>90.98</ele>
        <time>2026-04-22T08:32:49.000Z</time>
      </trkpt>
      <trkpt lat="59.0842084587" lon="30.0163918734">
        <ele>90.02</ele>
        <time>2026-04-22T08:33:06.000Z</time>
      </trkpt>
      <trkpt lat="59.0841562394" lon="30.0168745033">
        <ele>90.5</ele>
        <time>2026-04-22T08:33:22.000Z</time>
      </trkpt>
      <trkpt lat="59.0843009111" lon="30.0174247753">
        <ele>90.02</ele>
        <time>2026-04-22T08:33:44.000Z</time>
      </trkpt>
      <trkpt lat="59.0843118075" lon="30.0174432155">
        <ele>90.02</ele>
        <time>2026-04-22T08:33:45.000Z</time>
      </trkpt>
      <trkpt lat="59.0843890049" lon="30.0178775657">
        <ele>90.02</ele>
        <time>2026-04-22T08:34:01.000Z</time>
      </trkpt>
      <trkpt lat="59.0844774339" lon="30.0184196234">
        <ele>90.02</ele>
        <time>2026-04-22T08:34:24.000Z</time>
      </trkpt>
      <trkpt lat="59.0844916832" lon="30.0188522972">
        <ele>89.54</ele>
        <time>2026-04-22T08:34:39.000Z</time>
      </trkpt>
      <trkpt lat="59.0844586585" lon="30.0190130621">
        <ele>89.54</ele>
        <time>2026-04-22T08:34:43.000Z</time>
      </trkpt>
      <trkpt lat="59.0844579879" lon="30.0191065203">
        <ele>89.54</ele>
        <time>2026-04-22T08:34:50.000Z</time>
      </trkpt>
      <trkpt lat="59.0844516177" lon="30.0192102045">
        <ele>90.02</ele>
        <time>2026-04-22T08:35:15.000Z</time>
      </trkpt>
      <trkpt lat="59.0844535455" lon="30.0192190893">
        <ele>90.02</ele>
        <time>2026-04-22T08:35:21.000Z</time>
      </trkpt>
      <trkpt lat="59.0844570659" lon="30.0192526169">
        <ele>90.02</ele>
        <time>2026-04-22T08:35:23.000Z</time>
      </trkpt>
      <trkpt lat="59.084540382" lon="30.0195718836">
        <ele>88.58</ele>
        <time>2026-04-22T08:35:41.000Z</time>
      </trkpt>
      <trkpt lat="59.0845204331" lon="30.019932054">
        <ele>89.06</ele>
        <time>2026-04-22T08:36:05.000Z</time>
      </trkpt>
      <trkpt lat="59.0844235383" lon="30.0200659968">
        <ele>89.06</ele>
        <time>2026-04-22T08:36:31.000Z</time>
      </trkpt>
      <trkpt lat="59.0842154995" lon="30.0203032047">
        <ele>89.06</ele>
        <time>2026-04-22T08:36:56.000Z</time>
      </trkpt>
      <trkpt lat="59.0840055328" lon="30.0203444436">
        <ele>89.06</ele>
        <time>2026-04-22T08:37:21.000Z</time>
      </trkpt>
      <trkpt lat="59.0839729272" lon="30.0203158613">
        <ele>89.06</ele>
        <time>2026-04-22T08:37:51.000Z</time>
      </trkpt>
      <trkpt lat="59.0838179458" lon="30.0204052962">
        <ele>88.58</ele>
        <time>2026-04-22T08:38:16.000Z</time>
      </trkpt>
      <trkpt lat="59.0835977532" lon="30.0205001794">
        <ele>88.58</ele>
        <time>2026-04-22T08:38:39.000Z</time>
      </trkpt>
      <trkpt lat="59.0834391676" lon="30.0207493734">
        <ele>89.06</ele>
        <time>2026-04-22T08:39:02.000Z</time>
      </trkpt>
      <trkpt lat="59.0832765587" lon="30.0208025984">
        <ele>88.58</ele>
        <time>2026-04-22T08:39:25.000Z</time>
      </trkpt>
      <trkpt lat="59.0831128601" lon="30.0209123176">
        <ele>88.58</ele>
        <time>2026-04-22T08:39:37.000Z</time>
      </trkpt>
      <trkpt lat="59.0829499997" lon="30.0210562348">
        <ele>89.06</ele>
        <time>2026-04-22T08:39:59.000Z</time>
      </trkpt>
      <trkpt lat="59.0828354191" lon="30.0210066978">
        <ele>88.58</ele>
        <time>2026-04-22T08:40:16.000Z</time>
      </trkpt>
      <trkpt lat="59.082814632" lon="30.0209830608">
        <ele>88.58</ele>
        <time>2026-04-22T08:40:20.000Z</time>
      </trkpt>
      <trkpt lat="59.0826852154" lon="30.0209934544">
        <ele>88.58</ele>
        <time>2026-04-22T08:40:45.000Z</time>
      </trkpt>
      <trkpt lat="59.0826045815" lon="30.0210771058">
        <ele>89.06</ele>
        <time>2026-04-22T08:41:00.000Z</time>
      </trkpt>
      <trkpt lat="59.0825234447" lon="30.0210140739">
        <ele>89.06</ele>
        <time>2026-04-22T08:41:08.000Z</time>
      </trkpt>
      <trkpt lat="59.0824688785" lon="30.0210928638">
        <ele>89.06</ele>
        <time>2026-04-22T08:41:21.000Z</time>
      </trkpt>
      <trkpt lat="59.0822914336" lon="30.0212340988">
        <ele>89.54</ele>
        <time>2026-04-22T08:41:48.000Z</time>
      </trkpt>
      <trkpt lat="59.0821536351" lon="30.0212827139">
        <ele>89.06</ele>
        <time>2026-04-22T08:42:08.000Z</time>
      </trkpt>
      <trkpt lat="59.0820206981" lon="30.021290509">
        <ele>90.02</ele>
        <time>2026-04-22T08:42:27.000Z</time>
      </trkpt>
      <trkpt lat="59.0820072871" lon="30.0212775171">
        <ele>90.02</ele>
        <time>2026-04-22T08:43:00.000Z</time>
      </trkpt>
      <trkpt lat="59.0820144955" lon="30.02131138">
        <ele>90.02</ele>
        <time>2026-04-22T08:43:30.000Z</time>
      </trkpt>
      <trkpt lat="59.0820467658" lon="30.021505421">
        <ele>89.06</ele>
        <time>2026-04-22T08:43:47.000Z</time>
      </trkpt>
      <trkpt lat="59.0820829757" lon="30.0217158068">
        <ele>89.54</ele>
        <time>2026-04-22T08:44:03.000Z</time>
      </trkpt>
      <trkpt lat="59.0820932016" lon="30.0222295336">
        <ele>90.02</ele>
        <time>2026-04-22T08:44:31.000Z</time>
      </trkpt>
      <trkpt lat="59.0820887592" lon="30.0223577768">
        <ele>90.02</ele>
        <time>2026-04-22T08:44:40.000Z</time>
      </trkpt>
      <trkpt lat="59.0820896812" lon="30.0224138517">
        <ele>90.02</ele>
        <time>2026-04-22T08:44:43.000Z</time>
      </trkpt>
      <trkpt lat="59.0820623562" lon="30.0227076374">
        <ele>90.02</ele>
        <time>2026-04-22T08:45:04.000Z</time>
      </trkpt>
      <trkpt lat="59.0820717439" lon="30.0230738427">
        <ele>90.02</ele>
        <time>2026-04-22T08:45:28.000Z</time>
      </trkpt>
      <trkpt lat="59.0821010806" lon="30.0231041014">
        <ele>90.02</ele>
        <time>2026-04-22T08:45:32.000Z</time>
      </trkpt>
      <trkpt lat="59.0821978077" lon="30.0232390501">
        <ele>89.54</ele>
        <time>2026-04-22T08:45:57.000Z</time>
      </trkpt>
      <trkpt lat="59.0821418166" lon="30.0234788563">
        <ele>89.54</ele>
        <time>2026-04-22T08:46:14.000Z</time>
      </trkpt>
      <trkpt lat="59.0821080375" lon="30.0236939359">
        <ele>90.5</ele>
        <time>2026-04-22T08:46:37.000Z</time>
      </trkpt>
      <trkpt lat="59.0821245499" lon="30.0239719637">
        <ele>90.5</ele>
        <time>2026-04-22T08:47:02.000Z</time>
      </trkpt>
      <trkpt lat="59.0821552277" lon="30.0242905598">
        <ele>90.5</ele>
        <time>2026-04-22T08:47:28.000Z</time>
      </trkpt>
      <trkpt lat="59.0821555629" lon="30.0243261829">
        <ele>90.5</ele>
        <time>2026-04-22T08:47:29.000Z</time>
      </trkpt>
      <trkpt lat="59.082183307" lon="30.0243477244">
        <ele>90.5</ele>
        <time>2026-04-22T08:47:36.000Z</time>
      </trkpt>
      <trkpt lat="59.0823319182" lon="30.0244015362">
        <ele>90.5</ele>
        <time>2026-04-22T08:48:07.000Z</time>
      </trkpt>
      <trkpt lat="59.0823677089" lon="30.0245626364">
        <ele>90.5</ele>
        <time>2026-04-22T08:48:21.000Z</time>
      </trkpt>
      <trkpt lat="59.0823844727" lon="30.0248292647">
        <ele>90.98</ele>
        <time>2026-04-22T08:48:51.000Z</time>
      </trkpt>
      <trkpt lat="59.0824233647" lon="30.0248288456">
        <ele>90.98</ele>
        <time>2026-04-22T08:49:19.000Z</time>
      </trkpt>
      <trkpt lat="59.0825415496" lon="30.0249420013">
        <ele>90.98</ele>
        <time>2026-04-22T08:49:40.000Z</time>
      </trkpt>
      <trkpt lat="59.0828238521" lon="30.025046356">
        <ele>90.98</ele>
        <time>2026-04-22T08:50:08.000Z</time>
      </trkpt>
      <trkpt lat="59.0829542745" lon="30.0251578353">
        <ele>91.94</ele>
        <time>2026-04-22T08:50:42.000Z</time>
      </trkpt>
      <trkpt lat="59.0830905642" lon="30.025122799">
        <ele>91.46</ele>
        <time>2026-04-22T08:51:08.000Z</time>
      </trkpt>
      <trkpt lat="59.0832118504" lon="30.025011152">
        <ele>91.94</ele>
        <time>2026-04-22T08:51:24.000Z</time>
      </trkpt>
      <trkpt lat="59.0833382495" lon="30.0250659697">
        <ele>91.46</ele>
        <time>2026-04-22T08:51:38.000Z</time>
      </trkpt>
      <trkpt lat="59.0834879503" lon="30.0252596755">
        <ele>92.42</ele>
        <time>2026-04-22T08:52:00.000Z</time>
      </trkpt>
      <trkpt lat="59.0835537482" lon="30.0254234578">
        <ele>91.46</ele>
        <time>2026-04-22T08:52:11.000Z</time>
      </trkpt>
      <trkpt lat="59.0836353879" lon="30.0256890804">
        <ele>91.94</ele>
        <time>2026-04-22T08:52:28.000Z</time>
      </trkpt>
      <trkpt lat="59.0837176982" lon="30.0259607378">
        <ele>91.94</ele>
        <time>2026-04-22T08:52:46.000Z</time>
      </trkpt>
      <trkpt lat="59.0837254096" lon="30.0259756576">
        <ele>91.94</ele>
        <time>2026-04-22T08:52:47.000Z</time>
      </trkpt>
      <trkpt lat="59.0838102344" lon="30.0261386018">
        <ele>92.9</ele>
        <time>2026-04-22T08:53:00.000Z</time>
      </trkpt>
      <trkpt lat="59.0838959813" lon="30.0263823476">
        <ele>91.94</ele>
        <time>2026-04-22T08:53:17.000Z</time>
      </trkpt>
      <trkpt lat="59.0839157626" lon="30.0266043842">
        <ele>91.94</ele>
        <time>2026-04-22T08:53:32.000Z</time>
      </trkpt>
      <trkpt lat="59.0839795489" lon="30.0267737824">
        <ele>91.46</ele>
        <time>2026-04-22T08:53:47.000Z</time>
      </trkpt>
      <trkpt lat="59.0839917026" lon="30.0268659834">
        <ele>91.94</ele>
        <time>2026-04-22T08:53:52.000Z</time>
      </trkpt>
      <trkpt lat="59.0840671398" lon="30.0271155965">
        <ele>92.9</ele>
        <time>2026-04-22T08:54:09.000Z</time>
      </trkpt>
      <trkpt lat="59.0840782877" lon="30.0271458551">
        <ele>92.9</ele>
        <time>2026-04-22T08:54:11.000Z</time>
      </trkpt>
      <trkpt lat="59.0841471031" lon="30.0273771118">
        <ele>92.9</ele>
        <time>2026-04-22T08:54:26.000Z</time>
      </trkpt>
      <trkpt lat="59.0841836482" lon="30.0274968054">
        <ele>92.9</ele>
        <time>2026-04-22T08:54:33.000Z</time>
      </trkpt>
      <trkpt lat="59.0842553973" lon="30.0276967138">
        <ele>93.87</ele>
        <time>2026-04-22T08:54:49.000Z</time>
      </trkpt>
      <trkpt lat="59.0842640307" lon="30.0278677046">
        <ele>93.87</ele>
        <time>2026-04-22T08:54:55.000Z</time>
      </trkpt>
      <trkpt lat="59.0843196027" lon="30.0282271206">
        <ele>93.87</ele>
        <time>2026-04-22T08:55:14.000Z</time>
      </trkpt>
      <trkpt lat="59.0843089577" lon="30.0283066649">
        <ele>93.39</ele>
        <time>2026-04-22T08:55:19.000Z</time>
      </trkpt>
      <trkpt lat="59.0843058564" lon="30.0283675175">
        <ele>92.42</ele>
        <time>2026-04-22T08:55:48.000Z</time>
      </trkpt>
      <trkpt lat="59.0844225325" lon="30.0286187232">
        <ele>92.9</ele>
        <time>2026-04-22T08:56:11.000Z</time>
      </trkpt>
      <trkpt lat="59.0844629332" lon="30.0288453698">
        <ele>92.9</ele>
        <time>2026-04-22T08:56:22.000Z</time>
      </trkpt>
      <trkpt lat="59.084570054" lon="30.0291529857">
        <ele>92.42</ele>
        <time>2026-04-22T08:56:41.000Z</time>
      </trkpt>
      <trkpt lat="59.084581621" lon="30.0291847531">
        <ele>92.42</ele>
        <time>2026-04-22T08:56:44.000Z</time>
      </trkpt>
      <trkpt lat="59.0847283043" lon="30.0296661258">
        <ele>92.42</ele>
        <time>2026-04-22T08:57:06.000Z</time>
      </trkpt>
      <trkpt lat="59.0848232713" lon="30.030005509">
        <ele>93.39</ele>
        <time>2026-04-22T08:57:22.000Z</time>
      </trkpt>
      <trkpt lat="59.084911868" lon="30.030302396">
        <ele>92.9</ele>
        <time>2026-04-22T08:57:38.000Z</time>
      </trkpt>
      <trkpt lat="59.0849407017" lon="30.0304193236">
        <ele>92.42</ele>
        <time>2026-04-22T08:57:42.000Z</time>
      </trkpt>
      <trkpt lat="59.0850024763" lon="30.0305325631">
        <ele>92.9</ele>
        <time>2026-04-22T08:57:57.000Z</time>
      </trkpt>
      <trkpt lat="59.0849988721" lon="30.0305786636">
        <ele>94.35</ele>
        <time>2026-04-22T08:58:06.000Z</time>
      </trkpt>
      <trkpt lat="59.085041536" lon="30.0307059847">
        <ele>93.87</ele>
        <time>2026-04-22T08:58:37.000Z</time>
      </trkpt>
      <trkpt lat="59.0850449726" lon="30.030723419">
        <ele>93.87</ele>
        <time>2026-04-22T08:58:38.000Z</time>
      </trkpt>
      <trkpt lat="59.0850882232" lon="30.0310047995">
        <ele>93.87</ele>
        <time>2026-04-22T08:58:54.000Z</time>
      </trkpt>
      <trkpt lat="59.08509803" lon="30.0312525686">
        <ele>93.87</ele>
        <time>2026-04-22T08:59:07.000Z</time>
      </trkpt>
      <trkpt lat="59.0851001255" lon="30.0313197915">
        <ele>93.87</ele>
        <time>2026-04-22T08:59:09.000Z</time>
      </trkpt>
      <trkpt lat="59.0851047356" lon="30.0314148422">
        <ele>93.87</ele>
        <time>2026-04-22T08:59:13.000Z</time>
      </trkpt>
      <trkpt lat="59.0851167217" lon="30.0315540656">
        <ele>93.87</ele>
        <time>2026-04-22T08:59:20.000Z</time>
      </trkpt>
      <trkpt lat="59.0851431247" lon="30.0317427423">
        <ele>93.87</ele>
        <time>2026-04-22T08:59:30.000Z</time>
      </trkpt>
      <trkpt lat="59.0851555299" lon="30.0318089593">
        <ele>93.87</ele>
        <time>2026-04-22T08:59:34.000Z</time>
      </trkpt>
      <trkpt lat="59.0851442143" lon="30.0318534672">
        <ele>93.87</ele>
        <time>2026-04-22T08:59:36.000Z</time>
      </trkpt>
      <trkpt lat="59.0851046517" lon="30.0319900084">
        <ele>94.35</ele>
        <time>2026-04-22T08:59:53.000Z</time>
      </trkpt>
      <trkpt lat="59.0851023886" lon="30.0319961272">
        <ele>93.87</ele>
        <time>2026-04-22T09:00:13.000Z</time>
      </trkpt>
      <trkpt lat="59.0851122793" lon="30.0319929421">
        <ele>93.39</ele>
        <time>2026-04-22T09:00:35.000Z</time>
      </trkpt>
      <trkpt lat="59.0851257741" lon="30.0318334345">
        <ele>94.35</ele>
        <time>2026-04-22T09:00:50.000Z</time>
      </trkpt>
      <trkpt lat="59.0850992035" lon="30.0315254834">
        <ele>93.39</ele>
        <time>2026-04-22T09:01:10.000Z</time>
      </trkpt>
      <trkpt lat="59.0850945935" lon="30.0315109827">
        <ele>93.39</ele>
        <time>2026-04-22T09:01:11.000Z</time>
      </trkpt>
      <trkpt lat="59.0850562043" lon="30.0311921351">
        <ele>93.39</ele>
        <time>2026-04-22T09:01:26.000Z</time>
      </trkpt>
      <trkpt lat="59.085069783" lon="30.0308892969">
        <ele>94.35</ele>
        <time>2026-04-22T09:01:45.000Z</time>
      </trkpt>
      <trkpt lat="59.0851587988" lon="30.0304861274">
        <ele>93.39</ele>
        <time>2026-04-22T09:02:08.000Z</time>
      </trkpt>
      <trkpt lat="59.0853038896" lon="30.0302513503">
        <ele>93.39</ele>
        <time>2026-04-22T09:02:36.000Z</time>
      </trkpt>
      <trkpt lat="59.0853284486" lon="30.0302424654">
        <ele>92.9</ele>
        <time>2026-04-22T09:02:42.000Z</time>
      </trkpt>
      <trkpt lat="59.0855670813" lon="30.030216733">
        <ele>93.39</ele>
        <time>2026-04-22T09:03:11.000Z</time>
      </trkpt>
      <trkpt lat="59.085744191" lon="30.030141715">
        <ele>93.39</ele>
        <time>2026-04-22T09:03:43.000Z</time>
      </trkpt>
      <trkpt lat="59.085766403" lon="30.030137524">
        <ele>93.39</ele>
        <time>2026-04-22T09:03:46.000Z</time>
      </trkpt>
      <trkpt lat="59.0859839972" lon="30.0299741607">
        <ele>93.87</ele>
        <time>2026-04-22T09:04:18.000Z</time>
      </trkpt>
      <trkpt lat="59.0861937124" lon="30.0298110489">
        <ele>94.35</ele>
        <time>2026-04-22T09:04:43.000Z</time>
      </trkpt>
      <trkpt lat="59.0864137374" lon="30.0298511144">
        <ele>94.35</ele>
        <time>2026-04-22T09:05:08.000Z</time>
      </trkpt>
      <trkpt lat="59.0866605006" lon="30.0298605859">
        <ele>94.35</ele>
        <time>2026-04-22T09:05:35.000Z</time>
      </trkpt>
      <trkpt lat="59.0869246982" lon="30.0297266431">
        <ele>94.35</ele>
        <time>2026-04-22T09:06:05.000Z</time>
      </trkpt>
      <trkpt lat="59.0871866327" lon="30.0295639504">
        <ele>94.83</ele>
        <time>2026-04-22T09:06:37.000Z</time>
      </trkpt>
      <trkpt lat="59.0874217451" lon="30.0293153431">
        <ele>94.83</ele>
        <time>2026-04-22T09:07:05.000Z</time>
      </trkpt>
      <trkpt lat="59.0876118466" lon="30.0293483678">
        <ele>95.31</ele>
        <time>2026-04-22T09:07:29.000Z</time>
      </trkpt>
      <trkpt lat="59.0876600426" lon="30.0293342024">
        <ele>94.83</ele>
        <time>2026-04-22T09:07:59.000Z</time>
      </trkpt>
      <trkpt lat="59.0878695063" lon="30.0291438494">
        <ele>95.79</ele>
        <time>2026-04-22T09:08:26.000Z</time>
      </trkpt>
      <trkpt lat="59.0881596878" lon="30.0290245749">
        <ele>95.79</ele>
        <time>2026-04-22T09:08:55.000Z</time>
      </trkpt>
      <trkpt lat="59.088388849" lon="30.0289140176">
        <ele>95.79</ele>
        <time>2026-04-22T09:09:25.000Z</time>
      </trkpt>
      <trkpt lat="59.0884094685" lon="30.0288408436">
        <ele>95.79</ele>
        <time>2026-04-22T09:09:56.000Z</time>
      </trkpt>
      <trkpt lat="59.0883984044" lon="30.028756354">
        <ele>95.79</ele>
        <time>2026-04-22T09:10:18.000Z</time>
      </trkpt>
      <trkpt lat="59.0883890167" lon="30.0287073199">
        <ele>95.79</ele>
        <time>2026-04-22T09:10:20.000Z</time>
      </trkpt>
      <trkpt lat="59.0884174313" lon="30.0285290368">
        <ele>95.79</ele>
        <time>2026-04-22T09:10:35.000Z</time>
      </trkpt>
      <trkpt lat="59.0884129051" lon="30.0284606405">
        <ele>96.27</ele>
        <time>2026-04-22T09:10:41.000Z</time>
      </trkpt>
      <trkpt lat="59.0883876756" lon="30.0282976124">
        <ele>96.75</ele>
        <time>2026-04-22T09:10:49.000Z</time>
      </trkpt>
      <trkpt lat="59.0883222967" lon="30.0278646871">
        <ele>96.75</ele>
        <time>2026-04-22T09:11:09.000Z</time>
      </trkpt>
      <trkpt lat="59.0882932954" lon="30.0276801176">
        <ele>97.23</ele>
        <time>2026-04-22T09:11:47.000Z</time>
      </trkpt>
      <trkpt lat="59.088279549" lon="30.0276429858">
        <ele>97.23</ele>
        <time>2026-04-22T09:11:57.000Z</time>
      </trkpt>
      <trkpt lat="59.0882513858" lon="30.0276860688">
        <ele>98.19</ele>
        <time>2026-04-22T09:12:28.000Z</time>
      </trkpt>
      <trkpt lat="59.0882666409" lon="30.0276888348">
        <ele>98.19</ele>
        <time>2026-04-22T09:13:03.000Z</time>
      </trkpt>
      <trkpt lat="59.0882798843" lon="30.0276838057">
        <ele>98.19</ele>
        <time>2026-04-22T09:13:42.000Z</time>
      </trkpt>
      <trkpt lat="59.0881502163" lon="30.0277215242">
        <ele>98.67</ele>
        <time>2026-04-22T09:14:12.000Z</time>
      </trkpt>
      <trkpt lat="59.0881048702" lon="30.0277938601">
        <ele>98.19</ele>
        <time>2026-04-22T09:14:20.000Z</time>
      </trkpt>
      <trkpt lat="59.0880823229" lon="30.0278007332">
        <ele>98.19</ele>
        <time>2026-04-22T09:14:22.000Z</time>
      </trkpt>
      <trkpt lat="59.0880070534" lon="30.0278362725">
        <ele>98.19</ele>
        <time>2026-04-22T09:14:29.000Z</time>
      </trkpt>
      <trkpt lat="59.0879509784" lon="30.0278626755">
        <ele>98.19</ele>
        <time>2026-04-22T09:14:38.000Z</time>
      </trkpt>
      <trkpt lat="59.0877238289" lon="30.0280164834">
        <ele>99.15</ele>
        <time>2026-04-22T09:15:02.000Z</time>
      </trkpt>
      <trkpt lat="59.0876830928" lon="30.028028721">
        <ele>98.67</ele>
        <time>2026-04-22T09:15:05.000Z</time>
      </trkpt>
      <trkpt lat="59.0876114275" lon="30.0280647632">
        <ele>98.67</ele>
        <time>2026-04-22T09:15:42.000Z</time>
      </trkpt>
      <trkpt lat="59.0876108408" lon="30.0280466583">
        <ele>98.19</ele>
        <time>2026-04-22T09:16:12.000Z</time>
      </trkpt>
      <trkpt lat="59.0876029618" lon="30.0280762464">
        <ele>98.19</ele>
        <time>2026-04-22T09:16:14.000Z</time>
      </trkpt>
      <trkpt lat="59.087196691" lon="30.0282165594">
        <ele>98.19</ele>
        <time>2026-04-22T09:16:47.000Z</time>
      </trkpt>
      <trkpt lat="59.0870207548" lon="30.0283438805">
        <ele>97.23</ele>
        <time>2026-04-22T09:17:04.000Z</time>
      </trkpt>
      <trkpt lat="59.0866741631" lon="30.0283699483">
        <ele>97.23</ele>
        <time>2026-04-22T09:17:30.000Z</time>
      </trkpt>
      <trkpt lat="59.0864391346" lon="30.0284641609">
        <ele>97.23</ele>
        <time>2026-04-22T09:18:00.000Z</time>
      </trkpt>
      <trkpt lat="59.086408373" lon="30.0284773204">
        <ele>97.23</ele>
        <time>2026-04-22T09:18:05.000Z</time>
      </trkpt>
      <trkpt lat="59.0862877574" lon="30.0285058189">
        <ele>96.75</ele>
        <time>2026-04-22T09:18:29.000Z</time>
      </trkpt>
      <trkpt lat="59.0861382242" lon="30.0285908952">
        <ele>96.75</ele>
        <time>2026-04-22T09:18:47.000Z</time>
      </trkpt>
      <trkpt lat="59.086089693" lon="30.0285908114">
        <ele>96.75</ele>
        <time>2026-04-22T09:18:53.000Z</time>
      </trkpt>
      <trkpt lat="59.0858314466" lon="30.0286801625">
        <ele>97.23</ele>
        <time>2026-04-22T09:19:20.000Z</time>
      </trkpt>
      <trkpt lat="59.0855821688" lon="30.0286472216">
        <ele>98.19</ele>
        <time>2026-04-22T09:19:45.000Z</time>
      </trkpt>
      <trkpt lat="59.0855279379" lon="30.0286238361">
        <ele>97.71</ele>
        <time>2026-04-22T09:20:11.000Z</time>
      </trkpt>
      <trkpt lat="59.0854696836" lon="30.028943019">
        <ele>98.19</ele>
        <time>2026-04-22T09:20:43.000Z</time>
      </trkpt>
      <trkpt lat="59.0854442865" lon="30.0289805699">
        <ele>98.19</ele>
        <time>2026-04-22T09:20:50.000Z</time>
      </trkpt>
      <trkpt lat="59.0854055621" lon="30.0289965793">
        <ele>98.19</ele>
        <time>2026-04-22T09:20:55.000Z</time>
      </trkpt>
      <trkpt lat="59.0853359085" lon="30.029048631">
        <ele>98.67</ele>
        <time>2026-04-22T09:21:11.000Z</time>
      </trkpt>
      <trkpt lat="59.0853203181" lon="30.0290311966">
        <ele>98.67</ele>
        <time>2026-04-22T09:21:13.000Z</time>
      </trkpt>
      <trkpt lat="59.0852683503" lon="30.0289348047">
        <ele>98.67</ele>
        <time>2026-04-22T09:21:24.000Z</time>
      </trkpt>
      <trkpt lat="59.085246725" lon="30.0288046338">
        <ele>99.63</ele>
        <time>2026-04-22T09:21:40.000Z</time>
      </trkpt>
      <trkpt lat="59.0852190647" lon="30.0287514087">
        <ele>99.15</ele>
        <time>2026-04-22T09:21:46.000Z</time>
      </trkpt>
      <trkpt lat="59.0852085035" lon="30.0287228264">
        <ele>98.67</ele>
        <time>2026-04-22T09:21:48.000Z</time>
      </trkpt>
      <trkpt lat="59.0851942543" lon="30.0286855269">
        <ele>98.67</ele>
        <time>2026-04-22T09:21:51.000Z</time>
      </trkpt>
      <trkpt lat="59.0851393528" lon="30.0285437051">
        <ele>98.67</ele>
        <time>2026-04-22T09:22:01.000Z</time>
      </trkpt>
      <trkpt lat="59.0850820206" lon="30.0283983629">
        <ele>98.19</ele>
        <time>2026-04-22T09:22:17.000Z</time>
      </trkpt>
      <trkpt lat="59.0850482415" lon="30.0282805972">
        <ele>98.67</ele>
        <time>2026-04-22T09:22:30.000Z</time>
      </trkpt>
      <trkpt lat="59.084997531" lon="30.0280255359">
        <ele>99.63</ele>
        <time>2026-04-22T09:23:02.000Z</time>
      </trkpt>
      <trkpt lat="59.0849836171" lon="30.0279333349">
        <ele>99.63</ele>
        <time>2026-04-22T09:23:09.000Z</time>
      </trkpt>
      <trkpt lat="59.0849515982" lon="30.0277869869">
        <ele>99.15</ele>
        <time>2026-04-22T09:23:23.000Z</time>
      </trkpt>
      <trkpt lat="59.0849005524" lon="30.0275462586">
        <ele>99.63</ele>
        <time>2026-04-22T09:23:47.000Z</time>
      </trkpt>
      <trkpt lat="59.0849266201" lon="30.0275621843">
        <ele>99.15</ele>
        <time>2026-04-22T09:24:16.000Z</time>
      </trkpt>
      <trkpt lat="59.085092498" lon="30.0275206938">
        <ele>99.15</ele>
        <time>2026-04-22T09:24:39.000Z</time>
      </trkpt>
      <trkpt lat="59.0853025485" lon="30.0273890141">
        <ele>99.63</ele>
        <time>2026-04-22T09:25:06.000Z</time>
      </trkpt>
      <trkpt lat="59.0853996947" lon="30.0273839012">
        <ele>99.63</ele>
        <time>2026-04-22T09:25:23.000Z</time>
      </trkpt>
      <trkpt lat="59.0854573622" lon="30.0273267366">
        <ele>98.67</ele>
        <time>2026-04-22T09:25:32.000Z</time>
      </trkpt>
      <trkpt lat="59.0855829231" lon="30.0272642076">
        <ele>98.67</ele>
        <time>2026-04-22T09:26:05.000Z</time>
      </trkpt>
      <trkpt lat="59.0859075543" lon="30.0270903669">
        <ele>98.19</ele>
        <time>2026-04-22T09:26:38.000Z</time>
      </trkpt>
      <trkpt lat="59.0861808043" lon="30.0270944741">
        <ele>98.67</ele>
        <time>2026-04-22T09:27:10.000Z</time>
      </trkpt>
      <trkpt lat="59.0864486061" lon="30.0269256625">
        <ele>99.15</ele>
        <time>2026-04-22T09:27:41.000Z</time>
      </trkpt>
      <trkpt lat="59.0866776835" lon="30.0267403387">
        <ele>100.11</ele>
        <time>2026-04-22T09:28:11.000Z</time>
      </trkpt>
      <trkpt lat="59.086816404" lon="30.0266242493">
        <ele>100.11</ele>
        <time>2026-04-22T09:28:28.000Z</time>
      </trkpt>
      <trkpt lat="59.0869179927" lon="30.02649609">
        <ele>100.6</ele>
        <time>2026-04-22T09:28:55.000Z</time>
      </trkpt>
      <trkpt lat="59.0870862175" lon="30.0261006318">
        <ele>99.15</ele>
        <time>2026-04-22T09:29:23.000Z</time>
      </trkpt>
      <trkpt lat="59.087070208" lon="30.0260678586">
        <ele>99.63</ele>
        <time>2026-04-22T09:30:01.000Z</time>
      </trkpt>
      <trkpt lat="59.0870539472" lon="30.0263458863">
        <ele>99.63</ele>
        <time>2026-04-22T09:30:34.000Z</time>
      </trkpt>
      <trkpt lat="59.0870440565" lon="30.0265474711">
        <ele>99.63</ele>
        <time>2026-04-22T09:30:48.000Z</time>
      </trkpt>
      <trkpt lat="59.0873348247" lon="30.0265314616">
        <ele>98.67</ele>
        <time>2026-04-22T09:31:14.000Z</time>
      </trkpt>
      <trkpt lat="59.0876286943" lon="30.0264321361">
        <ele>99.63</ele>
        <time>2026-04-22T09:31:47.000Z</time>
      </trkpt>
      <trkpt lat="59.0879836679" lon="30.0263619795">
        <ele>99.63</ele>
        <time>2026-04-22T09:32:21.000Z</time>
      </trkpt>
      <trkpt lat="59.0882487874" lon="30.0262168888">
        <ele>99.63</ele>
        <time>2026-04-22T09:32:52.000Z</time>
      </trkpt>
      <trkpt lat="59.088260103" lon="30.0261849537">
        <ele>98.67</ele>
        <time>2026-04-22T09:33:26.000Z</time>
      </trkpt>
      <trkpt lat="59.0882123262" lon="30.0260267872">
        <ele>97.71</ele>
        <time>2026-04-22T09:33:51.000Z</time>
      </trkpt>
      <trkpt lat="59.0882041119" lon="30.0259709638">
        <ele>98.19</ele>
        <time>2026-04-22T09:33:54.000Z</time>
      </trkpt>
      <trkpt lat="59.0881930478" lon="30.0258959457">
        <ele>98.19</ele>
        <time>2026-04-22T09:33:57.000Z</time>
      </trkpt>
      <trkpt lat="59.0881492943" lon="30.0252884254">
        <ele>98.67</ele>
        <time>2026-04-22T09:34:29.000Z</time>
      </trkpt>
      <trkpt lat="59.0880865976" lon="30.0250233058">
        <ele>98.19</ele>
        <time>2026-04-22T09:34:59.000Z</time>
      </trkpt>
      <trkpt lat="59.0880541597" lon="30.0249340385">
        <ele>98.19</ele>
        <time>2026-04-22T09:35:30.000Z</time>
      </trkpt>
      <trkpt lat="59.088038737" lon="30.0248294324">
        <ele>98.19</ele>
        <time>2026-04-22T09:36:00.000Z</time>
      </trkpt>
      <trkpt lat="59.0880171116" lon="30.0247757044">
        <ele>98.19</ele>
        <time>2026-04-22T09:36:36.000Z</time>
      </trkpt>
      <trkpt lat="59.0880486276" lon="30.0248025265">
        <ele>98.19</ele>
        <time>2026-04-22T09:37:17.000Z</time>
      </trkpt>
      <trkpt lat="59.088065559" lon="30.0247835834">
        <ele>98.19</ele>
        <time>2026-04-22T09:38:00.000Z</time>
      </trkpt>
      <trkpt lat="59.0880430117" lon="30.0246731937">
        <ele>98.19</ele>
        <time>2026-04-22T09:38:39.000Z</time>
      </trkpt>
      <trkpt lat="59.0880811494" lon="30.0247275922">
        <ele>98.19</ele>
        <time>2026-04-22T09:39:17.000Z</time>
      </trkpt>
      <trkpt lat="59.0880850889" lon="30.0247290172">
        <ele>98.19</ele>
        <time>2026-04-22T09:39:58.000Z</time>
      </trkpt>
      <trkpt lat="59.0880854242" lon="30.02477956">
        <ele>98.19</ele>
        <time>2026-04-22T09:40:31.000Z</time>
      </trkpt>
      <trkpt lat="59.0881195385" lon="30.024782829">
        <ele>98.19</ele>
        <time>2026-04-22T09:41:12.000Z</time>
      </trkpt>
      <trkpt lat="59.0881150123" lon="30.0247986708">
        <ele>98.19</ele>
        <time>2026-04-22T09:41:55.000Z</time>
      </trkpt>
      <trkpt lat="59.088027589" lon="30.0248483755">
        <ele>98.19</ele>
        <time>2026-04-22T09:42:34.000Z</time>
      </trkpt>
      <trkpt lat="59.0878923889" lon="30.0248727668">
        <ele>98.19</ele>
        <time>2026-04-22T09:42:50.000Z</time>
      </trkpt>
      <trkpt lat="59.087848803" lon="30.0248834956">
        <ele>98.19</ele>
        <time>2026-04-22T09:42:57.000Z</time>
      </trkpt>
      <trkpt lat="59.0877234098" lon="30.0249560829">
        <ele>99.15</ele>
        <time>2026-04-22T09:43:12.000Z</time>
      </trkpt>
      <trkpt lat="59.0874437895" lon="30.0251954701">
        <ele>99.15</ele>
        <time>2026-04-22T09:43:44.000Z</time>
      </trkpt>
      <trkpt lat="59.0873370878" lon="30.0251629483">
        <ele>99.15</ele>
        <time>2026-04-22T09:44:03.000Z</time>
      </trkpt>
      <trkpt lat="59.0872445516" lon="30.0252105575">
        <ele>99.63</ele>
        <time>2026-04-22T09:44:18.000Z</time>
      </trkpt>
      <trkpt lat="59.0871464834" lon="30.0253555644">
        <ele>99.63</ele>
        <time>2026-04-22T09:44:36.000Z</time>
      </trkpt>
      <trkpt lat="59.0868812799" lon="30.0254050177">
        <ele>99.63</ele>
        <time>2026-04-22T09:45:07.000Z</time>
      </trkpt>
      <trkpt lat="59.0865927748" lon="30.0255881622">
        <ele>100.11</ele>
        <time>2026-04-22T09:45:38.000Z</time>
      </trkpt>
      <trkpt lat="59.0864608437" lon="30.0256827939">
        <ele>100.11</ele>
        <time>2026-04-22T09:45:54.000Z</time>
      </trkpt>
      <trkpt lat="59.0862725861" lon="30.025802739">
        <ele>100.11</ele>
        <time>2026-04-22T09:46:16.000Z</time>
      </trkpt>
      <trkpt lat="59.0862616897" lon="30.0257137232">
        <ele>100.11</ele>
        <time>2026-04-22T09:46:29.000Z</time>
      </trkpt>
      <trkpt lat="59.0860043652" lon="30.0257727318">
        <ele>99.63</ele>
        <time>2026-04-22T09:47:00.000Z</time>
      </trkpt>
      <trkpt lat="59.0857112501" lon="30.0259637553">
        <ele>99.15</ele>
        <time>2026-04-22T09:47:31.000Z</time>
      </trkpt>
      <trkpt lat="59.0854101721" lon="30.0260856282">
        <ele>99.63</ele>
        <time>2026-04-22T09:48:00.000Z</time>
      </trkpt>
      <trkpt lat="59.0853695199" lon="30.0261096004">
        <ele>99.63</ele>
        <time>2026-04-22T09:48:21.000Z</time>
      </trkpt>
      <trkpt lat="59.0852612257" lon="30.0261077564">
        <ele>99.15</ele>
        <time>2026-04-22T09:48:51.000Z</time>
      </trkpt>
      <trkpt lat="59.0851152129" lon="30.0261470675">
        <ele>100.6</ele>
        <time>2026-04-22T09:49:10.000Z</time>
      </trkpt>
      <trkpt lat="59.0849892329" lon="30.0261836126">
        <ele>100.11</ele>
        <time>2026-04-22T09:49:26.000Z</time>
      </trkpt>
      <trkpt lat="59.0848723054" lon="30.0262505002">
        <ele>99.63</ele>
        <time>2026-04-22T09:49:44.000Z</time>
      </trkpt>
      <trkpt lat="59.0846940223" lon="30.0263827667">
        <ele>100.6</ele>
        <time>2026-04-22T09:50:11.000Z</time>
      </trkpt>
      <trkpt lat="59.0845405497" lon="30.0265152846">
        <ele>100.6</ele>
        <time>2026-04-22T09:50:37.000Z</time>
      </trkpt>
      <trkpt lat="59.0844251309" lon="30.0265007">
        <ele>101.56</ele>
        <time>2026-04-22T09:50:59.000Z</time>
      </trkpt>
      <trkpt lat="59.084406523" lon="30.0263615604">
        <ele>101.56</ele>
        <time>2026-04-22T09:51:17.000Z</time>
      </trkpt>
      <trkpt lat="59.0843703132" lon="30.0261234306">
        <ele>101.56</ele>
        <time>2026-04-22T09:51:42.000Z</time>
      </trkpt>
      <trkpt lat="59.0843351092" lon="30.0260707084">
        <ele>101.56</ele>
        <time>2026-04-22T09:51:45.000Z</time>
      </trkpt>
      <trkpt lat="59.0841555689" lon="30.0255318359">
        <ele>101.56</ele>
        <time>2026-04-22T09:52:17.000Z</time>
      </trkpt>
      <trkpt lat="59.084067978" lon="30.0253081229">
        <ele>101.08</ele>
        <time>2026-04-22T09:52:43.000Z</time>
      </trkpt>
      <trkpt lat="59.0840547346" lon="30.0252077915">
        <ele>101.08</ele>
        <time>2026-04-22T09:53:19.000Z</time>
      </trkpt>
      <trkpt lat="59.0841431636" lon="30.0251523033">
        <ele>100.6</ele>
        <time>2026-04-22T09:53:33.000Z</time>
      </trkpt>
      <trkpt lat="59.0843484364" lon="30.0250406563">
        <ele>100.6</ele>
        <time>2026-04-22T09:54:01.000Z</time>
      </trkpt>
      <trkpt lat="59.0843928605" lon="30.0249980763">
        <ele>100.6</ele>
        <time>2026-04-22T09:54:34.000Z</time>
      </trkpt>
      <trkpt lat="59.084473243" lon="30.0248971581">
        <ele>101.56</ele>
        <time>2026-04-22T09:54:53.000Z</time>
      </trkpt>
      <trkpt lat="59.0846109577" lon="30.0247708429">
        <ele>101.08</ele>
        <time>2026-04-22T09:55:09.000Z</time>
      </trkpt>
      <trkpt lat="59.0847568028" lon="30.0246806536">
        <ele>101.56</ele>
        <time>2026-04-22T09:55:37.000Z</time>
      </trkpt>
      <trkpt lat="59.0848203376" lon="30.02475366">
        <ele>101.08</ele>
        <time>2026-04-22T09:56:01.000Z</time>
      </trkpt>
      <trkpt lat="59.0848631691" lon="30.0247354712">
        <ele>101.08</ele>
        <time>2026-04-22T09:56:10.000Z</time>
      </trkpt>
      <trkpt lat="59.0850030631" lon="30.024547549">
        <ele>102.04</ele>
        <time>2026-04-22T09:56:34.000Z</time>
      </trkpt>
      <trkpt lat="59.0850124508" lon="30.0245508179">
        <ele>102.04</ele>
        <time>2026-04-22T09:56:36.000Z</time>
      </trkpt>
      <trkpt lat="59.0851002932" lon="30.0245768856">
        <ele>102.04</ele>
        <time>2026-04-22T09:57:09.000Z</time>
      </trkpt>
      <trkpt lat="59.0853221621" lon="30.0245809089">
        <ele>101.56</ele>
        <time>2026-04-22T09:57:38.000Z</time>
      </trkpt>
      <trkpt lat="59.0855948254" lon="30.0244168751">
        <ele>101.56</ele>
        <time>2026-04-22T09:58:13.000Z</time>
      </trkpt>
      <trkpt lat="59.0858643875" lon="30.0242021307">
        <ele>101.08</ele>
        <time>2026-04-22T09:58:43.000Z</time>
      </trkpt>
      <trkpt lat="59.0860661399" lon="30.0241355784">
        <ele>102.04</ele>
        <time>2026-04-22T09:59:04.000Z</time>
      </trkpt>
      <trkpt lat="59.0861273278" lon="30.0241139531">
        <ele>102.04</ele>
        <time>2026-04-22T09:59:12.000Z</time>
      </trkpt>
      <trkpt lat="59.0861487854" lon="30.0241122767">
        <ele>102.52</ele>
        <time>2026-04-22T09:59:14.000Z</time>
      </trkpt>
      <trkpt lat="59.0862744302" lon="30.0240927469">
        <ele>100.6</ele>
        <time>2026-04-22T09:59:47.000Z</time>
      </trkpt>
      <trkpt lat="59.0863237157" lon="30.0240816828">
        <ele>100.6</ele>
        <time>2026-04-22T10:00:23.000Z</time>
      </trkpt>
      <trkpt lat="59.0864449181" lon="30.0240156334">
        <ele>102.04</ele>
        <time>2026-04-22T10:00:39.000Z</time>
      </trkpt>
      <trkpt lat="59.0864899289" lon="30.0239738077">
        <ele>101.56</ele>
        <time>2026-04-22T10:00:44.000Z</time>
      </trkpt>
      <trkpt lat="59.0865164995" lon="30.0239649229">
        <ele>101.56</ele>
        <time>2026-04-22T10:00:47.000Z</time>
      </trkpt>
      <trkpt lat="59.0866528731" lon="30.0239481591">
        <ele>101.56</ele>
        <time>2026-04-22T10:01:04.000Z</time>
      </trkpt>
      <trkpt lat="59.0868604928" lon="30.0238693692">
        <ele>102.04</ele>
        <time>2026-04-22T10:01:31.000Z</time>
      </trkpt>
      <trkpt lat="59.0869437251" lon="30.0238168985">
        <ele>102.52</ele>
        <time>2026-04-22T10:01:41.000Z</time>
      </trkpt>
      <trkpt lat="59.0869615786" lon="30.023816647">
        <ele>102.04</ele>
        <time>2026-04-22T10:01:43.000Z</time>
      </trkpt>
      <trkpt lat="59.0869790968" lon="30.0238061696">
        <ele>102.04</ele>
        <time>2026-04-22T10:01:45.000Z</time>
      </trkpt>
      <trkpt lat="59.0869951062" lon="30.0237712171">
        <ele>102.04</ele>
        <time>2026-04-22T10:01:48.000Z</time>
      </trkpt>
      <trkpt lat="59.0869565494" lon="30.0239144638">
        <ele>102.04</ele>
        <time>2026-04-22T10:02:18.000Z</time>
      </trkpt>
      <trkpt lat="59.0870695375" lon="30.0238361768">
        <ele>102.04</ele>
        <time>2026-04-22T10:02:41.000Z</time>
      </trkpt>
      <trkpt lat="59.0871676896" lon="30.0236687902">
        <ele>102.52</ele>
        <time>2026-04-22T10:03:12.000Z</time>
      </trkpt>
      <trkpt lat="59.0872739721" lon="30.0234950334">
        <ele>102.04</ele>
        <time>2026-04-22T10:03:38.000Z</time>
      </trkpt>
      <trkpt lat="59.087537583" lon="30.023488244">
        <ele>102.04</ele>
        <time>2026-04-22T10:04:13.000Z</time>
      </trkpt>
      <trkpt lat="59.0876940731" lon="30.0234960392">
        <ele>103</ele>
        <time>2026-04-22T10:04:36.000Z</time>
      </trkpt>
      <trkpt lat="59.0878270101" lon="30.0234272238">
        <ele>102.52</ele>
        <time>2026-04-22T10:04:48.000Z</time>
      </trkpt>
      <trkpt lat="59.0879028663" lon="30.0233838893">
        <ele>102.04</ele>
        <time>2026-04-22T10:05:30.000Z</time>
      </trkpt>
      <trkpt lat="59.0879055485" lon="30.0233811233">
        <ele>102.04</ele>
        <time>2026-04-22T10:06:05.000Z</time>
      </trkpt>
      <trkpt lat="59.0878555086" lon="30.0233418122">
        <ele>102.04</ele>
        <time>2026-04-22T10:06:35.000Z</time>
      </trkpt>
      <trkpt lat="59.0878554247" lon="30.0233826321">
        <ele>102.04</ele>
        <time>2026-04-22T10:07:09.000Z</time>
      </trkpt>
      <trkpt lat="59.0878757089" lon="30.0233718194">
        <ele>102.04</ele>
        <time>2026-04-22T10:07:41.000Z</time>
      </trkpt>
      <trkpt lat="59.0878875274" lon="30.0233954564">
        <ele>102.04</ele>
        <time>2026-04-22T10:08:12.000Z</time>
      </trkpt>
      <trkpt lat="59.0878700092" lon="30.0233165827">
        <ele>102.04</ele>
        <time>2026-04-22T10:08:43.000Z</time>
      </trkpt>
      <trkpt lat="59.0878672432" lon="30.0233100448">
        <ele>102.04</ele>
        <time>2026-04-22T10:09:16.000Z</time>
      </trkpt>
      <trkpt lat="59.0878622979" lon="30.0232780259">
        <ele>102.04</ele>
        <time>2026-04-22T10:10:01.000Z</time>
      </trkpt>
      <trkpt lat="59.0878448635" lon="30.0231939554">
        <ele>102.04</ele>
        <time>2026-04-22T10:10:30.000Z</time>
      </trkpt>
      <trkpt lat="59.0878528263" lon="30.023183981">
        <ele>102.04</ele>
        <time>2026-04-22T10:11:03.000Z</time>
      </trkpt>
      <trkpt lat="59.0878605377" lon="30.0231735036">
        <ele>102.04</ele>
        <time>2026-04-22T10:11:42.000Z</time>
      </trkpt>
      <trkpt lat="59.0878612921" lon="30.0232114736">
        <ele>102.04</ele>
        <time>2026-04-22T10:12:25.000Z</time>
      </trkpt>
      <trkpt lat="59.08788912" lon="30.0232236274">
        <ele>102.04</ele>
        <time>2026-04-22T10:13:00.000Z</time>
      </trkpt>
      <trkpt lat="59.0878887009" lon="30.0232605916">
        <ele>102.04</ele>
        <time>2026-04-22T10:13:28.000Z</time>
      </trkpt>
      <trkpt lat="59.0878874436" lon="30.0232710689">
        <ele>102.04</ele>
        <time>2026-04-22T10:14:07.000Z</time>
      </trkpt>
      <trkpt lat="59.0878862701" lon="30.0232878327">
        <ele>102.04</ele>
        <time>2026-04-22T10:14:55.000Z</time>
      </trkpt>
      <trkpt lat="59.0878868569" lon="30.0233068597">
        <ele>102.04</ele>
        <time>2026-04-22T10:15:37.000Z</time>
      </trkpt>
      <trkpt lat="59.0878591966" lon="30.0233403873">
        <ele>102.04</ele>
        <time>2026-04-22T10:17:11.000Z</time>
      </trkpt>
      <trkpt lat="59.0878870245" lon="30.0231972244">
        <ele>102.04</ele>
        <time>2026-04-22T10:18:00.000Z</time>
      </trkpt>
      <trkpt lat="59.0878934786" lon="30.0231694803">
        <ele>102.04</ele>
        <time>2026-04-22T10:18:04.000Z</time>
      </trkpt>
      <trkpt lat="59.0877954941" lon="30.022385437">
        <ele>103</ele>
        <time>2026-04-22T10:18:54.000Z</time>
      </trkpt>
      <trkpt lat="59.0877920575" lon="30.0222305395">
        <ele>103</ele>
        <time>2026-04-22T10:19:09.000Z</time>
      </trkpt>
      <trkpt lat="59.0877889562" lon="30.022192318">
        <ele>103</ele>
        <time>2026-04-22T10:19:11.000Z</time>
      </trkpt>
      <trkpt lat="59.0877672471" lon="30.0221344829">
        <ele>103</ele>
        <time>2026-04-22T10:19:15.000Z</time>
      </trkpt>
      <trkpt lat="59.0877406765" lon="30.0221039727">
        <ele>103.48</ele>
        <time>2026-04-22T10:19:21.000Z</time>
      </trkpt>
      <trkpt lat="59.0874358267" lon="30.0220804196">
        <ele>103.96</ele>
        <time>2026-04-22T10:19:52.000Z</time>
      </trkpt>
      <trkpt lat="59.0872075036" lon="30.0222289469">
        <ele>103.48</ele>
        <time>2026-04-22T10:20:18.000Z</time>
      </trkpt>
      <trkpt lat="59.087153608" lon="30.0223830901">
        <ele>103.96</ele>
        <time>2026-04-22T10:20:30.000Z</time>
      </trkpt>
      <trkpt lat="59.0870883968" lon="30.0224185456">
        <ele>104.44</ele>
        <time>2026-04-22T10:20:41.000Z</time>
      </trkpt>
      <trkpt lat="59.0868122131" lon="30.0225679111">
        <ele>104.44</ele>
        <time>2026-04-22T10:21:13.000Z</time>
      </trkpt>
      <trkpt lat="59.0867466666" lon="30.0226332899">
        <ele>103.96</ele>
        <time>2026-04-22T10:21:21.000Z</time>
      </trkpt>
      <trkpt lat="59.0867216047" lon="30.0226546638">
        <ele>103.96</ele>
        <time>2026-04-22T10:21:25.000Z</time>
      </trkpt>
      <trkpt lat="59.0866977163" lon="30.022658268">
        <ele>103.96</ele>
        <time>2026-04-22T10:21:28.000Z</time>
      </trkpt>
      <trkpt lat="59.0863109753" lon="30.0225395802">
        <ele>104.92</ele>
        <time>2026-04-22T10:21:58.000Z</time>
      </trkpt>
      <trkpt lat="59.0862929542" lon="30.0225408375">
        <ele>104.44</ele>
        <time>2026-04-22T10:22:00.000Z</time>
      </trkpt>
      <trkpt lat="59.0862430818" lon="30.022542933">
        <ele>104.92</ele>
        <time>2026-04-22T10:22:07.000Z</time>
      </trkpt>
      <trkpt lat="59.0859926306" lon="30.0227662269">
        <ele>104.44</ele>
        <time>2026-04-22T10:22:36.000Z</time>
      </trkpt>
      <trkpt lat="59.0856739506" lon="30.0229546521">
        <ele>105.88</ele>
        <time>2026-04-22T10:23:08.000Z</time>
      </trkpt>
      <trkpt lat="59.0853734594" lon="30.0230416562">
        <ele>103.96</ele>
        <time>2026-04-22T10:23:36.000Z</time>
      </trkpt>
      <trkpt lat="59.0851395205" lon="30.0231679715">
        <ele>105.88</ele>
        <time>2026-04-22T10:24:03.000Z</time>
      </trkpt>
      <trkpt lat="59.0849643387" lon="30.0231099688">
        <ele>106.84</ele>
        <time>2026-04-22T10:24:27.000Z</time>
      </trkpt>
      <trkpt lat="59.084844226" lon="30.0231915247">
        <ele>106.36</ele>
        <time>2026-04-22T10:24:50.000Z</time>
      </trkpt>
      <trkpt lat="59.0847541206" lon="30.0233186781">
        <ele>106.36</ele>
        <time>2026-04-22T10:25:27.000Z</time>
      </trkpt>
      <trkpt lat="59.0845830459" lon="30.0235361885">
        <ele>106.36</ele>
        <time>2026-04-22T10:25:58.000Z</time>
      </trkpt>
      <trkpt lat="59.0845321678" lon="30.0236734003">
        <ele>105.88</ele>
        <time>2026-04-22T10:26:06.000Z</time>
      </trkpt>
      <trkpt lat="59.0844110493" lon="30.0235692132">
        <ele>106.84</ele>
        <time>2026-04-22T10:26:25.000Z</time>
      </trkpt>
      <trkpt lat="59.0843048505" lon="30.0234127231">
        <ele>107.32</ele>
        <time>2026-04-22T10:26:53.000Z</time>
      </trkpt>
      <trkpt lat="59.084150875" lon="30.0234216917">
        <ele>107.32</ele>
        <time>2026-04-22T10:27:22.000Z</time>
      </trkpt>
      <trkpt lat="59.0841442533" lon="30.0234107114">
        <ele>107.32</ele>
        <time>2026-04-22T10:27:24.000Z</time>
      </trkpt>
      <trkpt lat="59.0840183571" lon="30.023499392">
        <ele>107.32</ele>
        <time>2026-04-22T10:27:48.000Z</time>
      </trkpt>
      <trkpt lat="59.0838579275" lon="30.0236088596">
        <ele>107.81</ele>
        <time>2026-04-22T10:28:16.000Z</time>
      </trkpt>
      <trkpt lat="59.0836638026" lon="30.0237935968">
        <ele>107.81</ele>
        <time>2026-04-22T10:28:43.000Z</time>
      </trkpt>
      <trkpt lat="59.08344822" lon="30.0238844566">
        <ele>108.29</ele>
        <time>2026-04-22T10:29:09.000Z</time>
      </trkpt>
      <trkpt lat="59.0833006147" lon="30.0239553675">
        <ele>108.77</ele>
        <time>2026-04-22T10:29:30.000Z</time>
      </trkpt>
      <trkpt lat="59.0830804221" lon="30.0238936767">
        <ele>108.29</ele>
        <time>2026-04-22T10:29:54.000Z</time>
      </trkpt>
      <trkpt lat="59.0828278754" lon="30.0238380209">
        <ele>107.81</ele>
        <time>2026-04-22T10:30:20.000Z</time>
      </trkpt>
      <trkpt lat="59.0826955251" lon="30.0237736478">
        <ele>107.32</ele>
        <time>2026-04-22T10:30:48.000Z</time>
      </trkpt>
      <trkpt lat="59.0826928429" lon="30.0235864799">
        <ele>107.81</ele>
        <time>2026-04-22T10:31:25.000Z</time>
      </trkpt>
      <trkpt lat="59.0826467425" lon="30.0232311711">
        <ele>107.32</ele>
        <time>2026-04-22T10:31:49.000Z</time>
      </trkpt>
      <trkpt lat="59.0826050844" lon="30.0229416601">
        <ele>107.81</ele>
        <time>2026-04-22T10:32:12.000Z</time>
      </trkpt>
      <trkpt lat="59.0826039109" lon="30.022898661">
        <ele>107.32</ele>
        <time>2026-04-22T10:32:15.000Z</time>
      </trkpt>
      <trkpt lat="59.0825899132" lon="30.0227294303">
        <ele>107.32</ele>
        <time>2026-04-22T10:32:28.000Z</time>
      </trkpt>
      <trkpt lat="59.0828194935" lon="30.0225496385">
        <ele>107.32</ele>
        <time>2026-04-22T10:32:56.000Z</time>
      </trkpt>
      <trkpt lat="59.0828638338" lon="30.0224918034">
        <ele>107.32</ele>
        <time>2026-04-22T10:33:07.000Z</time>
      </trkpt>
      <trkpt lat="59.0829401929" lon="30.0224240776">
        <ele>106.84</ele>
        <time>2026-04-22T10:33:23.000Z</time>
      </trkpt>
      <trkpt lat="59.0829557832" lon="30.0224205572">
        <ele>106.84</ele>
        <time>2026-04-22T10:33:25.000Z</time>
      </trkpt>
      <trkpt lat="59.0830010455" lon="30.0223800726">
        <ele>107.32</ele>
        <time>2026-04-22T10:33:33.000Z</time>
      </trkpt>
      <trkpt lat="59.0830723755" lon="30.0223098323">
        <ele>107.32</ele>
        <time>2026-04-22T10:33:46.000Z</time>
      </trkpt>
      <trkpt lat="59.0831385925" lon="30.0223308709">
        <ele>107.32</ele>
        <time>2026-04-22T10:33:52.000Z</time>
      </trkpt>
      <trkpt lat="59.0831535961" lon="30.0223178789">
        <ele>107.32</ele>
        <time>2026-04-22T10:33:54.000Z</time>
      </trkpt>
      <trkpt lat="59.0832260996" lon="30.022298852">
        <ele>107.32</ele>
        <time>2026-04-22T10:34:02.000Z</time>
      </trkpt>
      <trkpt lat="59.0833584499" lon="30.0221682619">
        <ele>106.84</ele>
        <time>2026-04-22T10:34:29.000Z</time>
      </trkpt>
      <trkpt lat="59.0833571926" lon="30.0221408531">
        <ele>106.84</ele>
        <time>2026-04-22T10:34:31.000Z</time>
      </trkpt>
      <trkpt lat="59.0834193025" lon="30.021950081">
        <ele>106.36</ele>
        <time>2026-04-22T10:35:03.000Z</time>
      </trkpt>
      <trkpt lat="59.0834731981" lon="30.022053346">
        <ele>105.88</ele>
        <time>2026-04-22T10:35:28.000Z</time>
      </trkpt>
      <trkpt lat="59.0835440252" lon="30.022241855">
        <ele>105.88</ele>
        <time>2026-04-22T10:36:01.000Z</time>
      </trkpt>
      <trkpt lat="59.0835837554" lon="30.02236926">
        <ele>105.88</ele>
        <time>2026-04-22T10:36:29.000Z</time>
      </trkpt>
      <trkpt lat="59.0836907923" lon="30.0223908015">
        <ele>105.88</ele>
        <time>2026-04-22T10:36:54.000Z</time>
      </trkpt>
      <trkpt lat="59.0837155189" lon="30.0224318728">
        <ele>105.88</ele>
        <time>2026-04-22T10:37:02.000Z</time>
      </trkpt>
      <trkpt lat="59.0837620385" lon="30.0224983413">
        <ele>105.88</ele>
        <time>2026-04-22T10:37:16.000Z</time>
      </trkpt>
      <trkpt lat="59.0838466957" lon="30.0223840959">
        <ele>106.36</ele>
        <time>2026-04-22T10:37:43.000Z</time>
      </trkpt>
      <trkpt lat="59.0839362983" lon="30.0222453754">
        <ele>107.32</ele>
        <time>2026-04-22T10:38:12.000Z</time>
      </trkpt>
      <trkpt lat="59.0839715861" lon="30.0221924018">
        <ele>106.84</ele>
        <time>2026-04-22T10:38:18.000Z</time>
      </trkpt>
      <trkpt lat="59.0840813052" lon="30.0220823474">
        <ele>107.32</ele>
        <time>2026-04-22T10:38:41.000Z</time>
      </trkpt>
      <trkpt lat="59.0841584187" lon="30.0219937507">
        <ele>107.32</ele>
        <time>2026-04-22T10:39:05.000Z</time>
      </trkpt>
      <trkpt lat="59.0841711592" lon="30.0219877996">
        <ele>107.32</ele>
        <time>2026-04-22T10:39:09.000Z</time>
      </trkpt>
      <trkpt lat="59.0842745081" lon="30.0219945889">
        <ele>107.81</ele>
        <time>2026-04-22T10:39:37.000Z</time>
      </trkpt>
      <trkpt lat="59.0843061078" lon="30.0219613966">
        <ele>107.81</ele>
        <time>2026-04-22T10:39:50.000Z</time>
      </trkpt>
      <trkpt lat="59.084461173" lon="30.021818988">
        <ele>107.81</ele>
        <time>2026-04-22T10:40:12.000Z</time>
      </trkpt>
      <trkpt lat="59.0845375322" lon="30.0217534415">
        <ele>107.81</ele>
        <time>2026-04-22T10:40:18.000Z</time>
      </trkpt>
      <trkpt lat="59.0846403781" lon="30.0217557885">
        <ele>108.29</ele>
        <time>2026-04-22T10:40:38.000Z</time>
      </trkpt>
      <trkpt lat="59.0847144742" lon="30.021671718">
        <ele>106.84</ele>
        <time>2026-04-22T10:40:50.000Z</time>
      </trkpt>
      <trkpt lat="59.0849225968" lon="30.0215824507">
        <ele>107.81</ele>
        <time>2026-04-22T10:41:23.000Z</time>
      </trkpt>
      <trkpt lat="59.085048493" lon="30.0215707161">
        <ele>107.81</ele>
        <time>2026-04-22T10:41:38.000Z</time>
      </trkpt>
      <trkpt lat="59.0851282049" lon="30.0215850491">
        <ele>107.81</ele>
        <time>2026-04-22T10:41:49.000Z</time>
      </trkpt>
      <trkpt lat="59.085209677" lon="30.0215365179">
        <ele>107.32</ele>
        <time>2026-04-22T10:42:23.000Z</time>
      </trkpt>
      <trkpt lat="59.085467672" lon="30.0212913472">
        <ele>108.29</ele>
        <time>2026-04-22T10:42:55.000Z</time>
      </trkpt>
      <trkpt lat="59.0856528282" lon="30.0213705562">
        <ele>107.32</ele>
        <time>2026-04-22T10:43:19.000Z</time>
      </trkpt>
      <trkpt lat="59.0859615337" lon="30.0212895032">
        <ele>107.81</ele>
        <time>2026-04-22T10:43:52.000Z</time>
      </trkpt>
      <trkpt lat="59.0859773755" lon="30.0213001482">
        <ele>107.81</ele>
        <time>2026-04-22T10:43:55.000Z</time>
      </trkpt>
      <trkpt lat="59.086030433" lon="30.021354463">
        <ele>107.81</ele>
        <time>2026-04-22T10:44:21.000Z</time>
      </trkpt>
      <trkpt lat="59.0861080494" lon="30.0214159023">
        <ele>107.81</ele>
        <time>2026-04-22T10:44:53.000Z</time>
      </trkpt>
      <trkpt lat="59.0861139167" lon="30.0213462487">
        <ele>107.81</ele>
        <time>2026-04-22T10:45:14.000Z</time>
      </trkpt>
      <trkpt lat="59.086181391" lon="30.0211134832">
        <ele>107.81</ele>
        <time>2026-04-22T10:45:39.000Z</time>
      </trkpt>
      <trkpt lat="59.086433854" lon="30.0210090447">
        <ele>108.29</ele>
        <time>2026-04-22T10:46:13.000Z</time>
      </trkpt>
      <trkpt lat="59.0864476841" lon="30.0209971424">
        <ele>108.29</ele>
        <time>2026-04-22T10:46:15.000Z</time>
      </trkpt>
      <trkpt lat="59.0865216963" lon="30.0209235493">
        <ele>107.32</ele>
        <time>2026-04-22T10:46:27.000Z</time>
      </trkpt>
      <trkpt lat="59.0866435692" lon="30.0208886806">
        <ele>107.32</ele>
        <time>2026-04-22T10:46:49.000Z</time>
      </trkpt>
      <trkpt lat="59.086687658" lon="30.0208745152">
        <ele>107.32</ele>
        <time>2026-04-22T10:46:54.000Z</time>
      </trkpt>
      <trkpt lat="59.0871718805" lon="30.020803269">
        <ele>106.84</ele>
        <time>2026-04-22T10:47:27.000Z</time>
      </trkpt>
      <trkpt lat="59.0873888042" lon="30.0206418335">
        <ele>106.84</ele>
        <time>2026-04-22T10:47:56.000Z</time>
      </trkpt>
      <trkpt lat="59.0875690989" lon="30.0205793884">
        <ele>106.84</ele>
        <time>2026-04-22T10:48:16.000Z</time>
      </trkpt>
      <trkpt lat="59.0875478927" lon="30.0204257481">
        <ele>107.32</ele>
        <time>2026-04-22T10:48:34.000Z</time>
      </trkpt>
      <trkpt lat="59.0875339787" lon="30.0202819146">
        <ele>107.32</ele>
        <time>2026-04-22T10:48:42.000Z</time>
      </trkpt>
      <trkpt lat="59.087550994" lon="30.0199328084">
        <ele>108.29</ele>
        <time>2026-04-22T10:49:13.000Z</time>
      </trkpt>
      <trkpt lat="59.0875402652" lon="30.0198195688">
        <ele>108.77</ele>
        <time>2026-04-22T10:49:20.000Z</time>
      </trkpt>
      <trkpt lat="59.0875048097" lon="30.0194070954">
        <ele>108.77</ele>
        <time>2026-04-22T10:49:43.000Z</time>
      </trkpt>
      <trkpt lat="59.0874986071" lon="30.0192030799">
        <ele>108.77</ele>
        <time>2026-04-22T10:49:59.000Z</time>
      </trkpt>
      <trkpt lat="59.0874447953" lon="30.0189998187">
        <ele>108.77</ele>
        <time>2026-04-22T10:50:10.000Z</time>
      </trkpt>
      <trkpt lat="59.0874515846" lon="30.0188299175">
        <ele>109.25</ele>
        <time>2026-04-22T10:50:45.000Z</time>
      </trkpt>
      <trkpt lat="59.0874554403" lon="30.0185892731">
        <ele>108.29</ele>
        <time>2026-04-22T10:51:10.000Z</time>
      </trkpt>
      <trkpt lat="59.08745653" lon="30.018545771">
        <ele>109.73</ele>
        <time>2026-04-22T10:51:13.000Z</time>
      </trkpt>
      <trkpt lat="59.0874309652" lon="30.0184403267">
        <ele>109.73</ele>
        <time>2026-04-22T10:51:22.000Z</time>
      </trkpt>
      <trkpt lat="59.0874011256" lon="30.018226672">
        <ele>110.21</ele>
        <time>2026-04-22T10:51:36.000Z</time>
      </trkpt>
      <trkpt lat="59.0873558633" lon="30.0180079881">
        <ele>109.73</ele>
        <time>2026-04-22T10:51:47.000Z</time>
      </trkpt>
      <trkpt lat="59.0870911628" lon="30.0180711877">
        <ele>108.77</ele>
        <time>2026-04-22T10:52:16.000Z</time>
      </trkpt>
      <trkpt lat="59.086873401" lon="30.0181868579">
        <ele>108.77</ele>
        <time>2026-04-22T10:52:46.000Z</time>
      </trkpt>
      <trkpt lat="59.0866183396" lon="30.0182213914">
        <ele>109.25</ele>
        <time>2026-04-22T10:53:15.000Z</time>
      </trkpt>
      <trkpt lat="59.086361099" lon="30.0182267558">
        <ele>108.77</ele>
        <time>2026-04-22T10:53:46.000Z</time>
      </trkpt>
      <trkpt lat="59.0861020144" lon="30.0183249079">
        <ele>108.77</ele>
        <time>2026-04-22T10:54:18.000Z</time>
      </trkpt>
      <trkpt lat="59.0862304252" lon="30.0184797216">
        <ele>108.77</ele>
        <time>2026-04-22T10:54:44.000Z</time>
      </trkpt>
      <trkpt lat="59.0863053594" lon="30.018634703">
        <ele>108.77</ele>
        <time>2026-04-22T10:54:58.000Z</time>
      </trkpt>
      <trkpt lat="59.0864446666" lon="30.0188951287">
        <ele>108.29</ele>
        <time>2026-04-22T10:55:22.000Z</time>
      </trkpt>
      <trkpt lat="59.0866148192" lon="30.0191005692">
        <ele>108.77</ele>
        <time>2026-04-22T10:55:52.000Z</time>
      </trkpt>
      <trkpt lat="59.0867796913" lon="30.0193884876">
        <ele>108.29</ele>
        <time>2026-04-22T10:56:19.000Z</time>
      </trkpt>
      <trkpt lat="59.0868131351" lon="30.0195023138">
        <ele>108.29</ele>
        <time>2026-04-22T10:56:26.000Z</time>
      </trkpt>
      <trkpt lat="59.0867046732" lon="30.0196019746">
        <ele>108.77</ele>
        <time>2026-04-22T10:56:49.000Z</time>
      </trkpt>
      <trkpt lat="59.0866652783" lon="30.0196171459">
        <ele>108.77</ele>
        <time>2026-04-22T10:56:58.000Z</time>
      </trkpt>
      <trkpt lat="59.0864194371" lon="30.0197947584">
        <ele>108.29</ele>
        <time>2026-04-22T10:57:24.000Z</time>
      </trkpt>
      <trkpt lat="59.086249033" lon="30.0198200718">
        <ele>109.25</ele>
        <time>2026-04-22T10:57:44.000Z</time>
      </trkpt>
      <trkpt lat="59.0860534832" lon="30.019853767">
        <ele>108.77</ele>
        <time>2026-04-22T10:58:09.000Z</time>
      </trkpt>
      <trkpt lat="59.0860246494" lon="30.0198222511">
        <ele>108.77</ele>
        <time>2026-04-22T10:58:13.000Z</time>
      </trkpt>
      <trkpt lat="59.0860054549" lon="30.0198259391">
        <ele>107.81</ele>
        <time>2026-04-22T10:58:45.000Z</time>
      </trkpt>
      <trkpt lat="59.085948877" lon="30.0198822655">
        <ele>108.77</ele>
        <time>2026-04-22T10:59:06.000Z</time>
      </trkpt>
      <trkpt lat="59.0857783891" lon="30.0200170465">
        <ele>108.29</ele>
        <time>2026-04-22T10:59:32.000Z</time>
      </trkpt>
      <trkpt lat="59.0855810791" lon="30.0201842654">
        <ele>108.29</ele>
        <time>2026-04-22T10:59:58.000Z</time>
      </trkpt>
      <trkpt lat="59.0853901394" lon="30.0202510692">
        <ele>108.29</ele>
        <time>2026-04-22T11:00:21.000Z</time>
      </trkpt>
      <trkpt lat="59.0851771552" lon="30.0202901289">
        <ele>108.29</ele>
        <time>2026-04-22T11:00:48.000Z</time>
      </trkpt>
      <trkpt lat="59.0850427933" lon="30.0202786457">
        <ele>108.29</ele>
        <time>2026-04-22T11:01:17.000Z</time>
      </trkpt>
      <trkpt lat="59.0849724691" lon="30.020152498">
        <ele>110.21</ele>
        <time>2026-04-22T11:01:30.000Z</time>
      </trkpt>
      <trkpt lat="59.084944725" lon="30.0199665036">
        <ele>110.69</ele>
        <time>2026-04-22T11:01:46.000Z</time>
      </trkpt>
      <trkpt lat="59.084936846" lon="30.0196665153">
        <ele>110.69</ele>
        <time>2026-04-22T11:02:06.000Z</time>
      </trkpt>
      <trkpt lat="59.0849120356" lon="30.0195292197">
        <ele>110.21</ele>
        <time>2026-04-22T11:02:13.000Z</time>
      </trkpt>
      <trkpt lat="59.0848583914" lon="30.019363258">
        <ele>110.69</ele>
        <time>2026-04-22T11:02:24.000Z</time>
      </trkpt>
      <trkpt lat="59.0848481655" lon="30.0191817898">
        <ele>110.69</ele>
        <time>2026-04-22T11:02:37.000Z</time>
      </trkpt>
      <trkpt lat="59.0849645901" lon="30.0189412292">
        <ele>110.69</ele>
        <time>2026-04-22T11:03:00.000Z</time>
      </trkpt>
      <trkpt lat="59.0851217508" lon="30.018923711">
        <ele>110.69</ele>
        <time>2026-04-22T11:03:26.000Z</time>
      </trkpt>
      <trkpt lat="59.0852035582" lon="30.018964028">
        <ele>110.69</ele>
        <time>2026-04-22T11:03:33.000Z</time>
      </trkpt>
      <trkpt lat="59.0854948293" lon="30.0187502895">
        <ele>110.21</ele>
        <time>2026-04-22T11:04:04.000Z</time>
      </trkpt>
      <trkpt lat="59.0855645668" lon="30.0187229645">
        <ele>110.21</ele>
        <time>2026-04-22T11:04:14.000Z</time>
      </trkpt>
      <trkpt lat="59.085608907" lon="30.0186478626">
        <ele>110.69</ele>
        <time>2026-04-22T11:04:47.000Z</time>
      </trkpt>
      <trkpt lat="59.0856161993" lon="30.0185924582">
        <ele>111.17</ele>
        <time>2026-04-22T11:05:13.000Z</time>
      </trkpt>
      <trkpt lat="59.0856137685" lon="30.0185632892">
        <ele>111.17</ele>
        <time>2026-04-22T11:05:19.000Z</time>
      </trkpt>
      <trkpt lat="59.0856312029" lon="30.018486511">
        <ele>111.17</ele>
        <time>2026-04-22T11:05:25.000Z</time>
      </trkpt>
      <trkpt lat="59.0855738707" lon="30.0182959903">
        <ele>110.69</ele>
        <time>2026-04-22T11:05:47.000Z</time>
      </trkpt>
      <trkpt lat="59.0855968371" lon="30.0180671643">
        <ele>112.61</ele>
        <time>2026-04-22T11:06:15.000Z</time>
      </trkpt>
      <trkpt lat="59.0855801571" lon="30.0177650806">
        <ele>112.61</ele>
        <time>2026-04-22T11:06:37.000Z</time>
      </trkpt>
      <trkpt lat="59.0854618046" lon="30.0174767431">
        <ele>112.61</ele>
        <time>2026-04-22T11:06:49.000Z</time>
      </trkpt>
      <trkpt lat="59.085161062" lon="30.0175116956">
        <ele>112.13</ele>
        <time>2026-04-22T11:07:21.000Z</time>
      </trkpt>
      <trkpt lat="59.0848899912" lon="30.0176198222">
        <ele>112.13</ele>
        <time>2026-04-22T11:07:49.000Z</time>
      </trkpt>
      <trkpt lat="59.0846604947" lon="30.017695846">
        <ele>112.13</ele>
        <time>2026-04-22T11:08:19.000Z</time>
      </trkpt>
      <trkpt lat="59.0846543759" lon="30.0176245999">
        <ele>112.13</ele>
        <time>2026-04-22T11:08:24.000Z</time>
      </trkpt>
      <trkpt lat="59.0845932718" lon="30.0171938539">
        <ele>112.61</ele>
        <time>2026-04-22T11:08:51.000Z</time>
      </trkpt>
      <trkpt lat="59.0845855605" lon="30.0168322586">
        <ele>113.57</ele>
        <time>2026-04-22T11:09:13.000Z</time>
      </trkpt>
      <trkpt lat="59.0846702177" lon="30.016620867">
        <ele>112.61</ele>
        <time>2026-04-22T11:09:42.000Z</time>
      </trkpt>
      <trkpt lat="59.0847991314" lon="30.0164947193">
        <ele>114.05</ele>
        <time>2026-04-22T11:10:05.000Z</time>
      </trkpt>
      <trkpt lat="59.0849427134" lon="30.0164849125">
        <ele>112.61</ele>
        <time>2026-04-22T11:10:34.000Z</time>
      </trkpt>
      <trkpt lat="59.0851167217" lon="30.0162641332">
        <ele>113.09</ele>
        <time>2026-04-22T11:11:01.000Z</time>
      </trkpt>
      <trkpt lat="59.0852213278" lon="30.0161588565">
        <ele>112.13</ele>
        <time>2026-04-22T11:11:16.000Z</time>
      </trkpt>
      <trkpt lat="59.0852347389" lon="30.0160807371">
        <ele>113.09</ele>
        <time>2026-04-22T11:11:24.000Z</time>
      </trkpt>
      <trkpt lat="59.0852302127" lon="30.0158591196">
        <ele>112.61</ele>
        <time>2026-04-22T11:11:42.000Z</time>
      </trkpt>
      <trkpt lat="59.0852316376" lon="30.0157603808">
        <ele>112.61</ele>
        <time>2026-04-22T11:11:48.000Z</time>
      </trkpt>
      <trkpt lat="59.0852484014" lon="30.0156379212">
        <ele>112.61</ele>
        <time>2026-04-22T11:12:00.000Z</time>
      </trkpt>
      <trkpt lat="59.0852626506" lon="30.0154820178">
        <ele>112.61</ele>
        <time>2026-04-22T11:12:10.000Z</time>
      </trkpt>
      <trkpt lat="59.0852574538" lon="30.0154380966">
        <ele>113.09</ele>
        <time>2026-04-22T11:12:12.000Z</time>
      </trkpt>
      <trkpt lat="59.0852179751" lon="30.0151138846">
        <ele>112.61</ele>
        <time>2026-04-22T11:12:44.000Z</time>
      </trkpt>
      <trkpt lat="59.0850821882" lon="30.0150683708">
        <ele>112.61</ele>
        <time>2026-04-22T11:13:20.000Z</time>
      </trkpt>
      <trkpt lat="59.0849345829" lon="30.015039118">
        <ele>112.61</ele>
        <time>2026-04-22T11:13:39.000Z</time>
      </trkpt>
      <trkpt lat="59.0848704614" lon="30.015076166">
        <ele>112.61</ele>
        <time>2026-04-22T11:13:52.000Z</time>
      </trkpt>
      <trkpt lat="59.0846485924" lon="30.0151926745">
        <ele>114.05</ele>
        <time>2026-04-22T11:14:19.000Z</time>
      </trkpt>
      <trkpt lat="59.0844235383" lon="30.0152534433">
        <ele>114.53</ele>
        <time>2026-04-22T11:14:47.000Z</time>
      </trkpt>
      <trkpt lat="59.0843954589" lon="30.0152490847">
        <ele>114.53</ele>
        <time>2026-04-22T11:14:54.000Z</time>
      </trkpt>
      <trkpt lat="59.084299067" lon="30.0149569754">
        <ele>114.05</ele>
        <time>2026-04-22T11:15:14.000Z</time>
      </trkpt>
      <trkpt lat="59.08427082" lon="30.0145548955">
        <ele>114.05</ele>
        <time>2026-04-22T11:15:41.000Z</time>
      </trkpt>
      <trkpt lat="59.084275011" lon="30.0144399796">
        <ele>114.05</ele>
        <time>2026-04-22T11:15:50.000Z</time>
      </trkpt>
      <trkpt lat="59.0842756815" lon="30.0143793784">
        <ele>114.53</ele>
        <time>2026-04-22T11:15:54.000Z</time>
      </trkpt>
      <trkpt lat="59.0843580756" lon="30.0139167812">
        <ele>114.05</ele>
        <time>2026-04-22T11:16:22.000Z</time>
      </trkpt>
      <trkpt lat="59.0846483409" lon="30.0137707684">
        <ele>115.01</ele>
        <time>2026-04-22T11:16:55.000Z</time>
      </trkpt>
      <trkpt lat="59.0849324036" lon="30.0136247557">
        <ele>114.53</ele>
        <time>2026-04-22T11:17:24.000Z</time>
      </trkpt>
      <trkpt lat="59.0849521849" lon="30.0135142822">
        <ele>114.53</ele>
        <time>2026-04-22T11:17:32.000Z</time>
      </trkpt>
      <trkpt lat="59.0849015582" lon="30.0130915828">
        <ele>114.05</ele>
        <time>2026-04-22T11:17:58.000Z</time>
      </trkpt>
      <trkpt lat="59.0848903265" lon="30.0130448956">
        <ele>114.05</ele>
        <time>2026-04-22T11:18:02.000Z</time>
      </trkpt>
      <trkpt lat="59.0848643426" lon="30.0129238609">
        <ele>115.5</ele>
        <time>2026-04-22T11:18:09.000Z</time>
      </trkpt>
      <trkpt lat="59.0847915038" lon="30.0126493536">
        <ele>115.01</ele>
        <time>2026-04-22T11:18:38.000Z</time>
      </trkpt>
      <trkpt lat="59.0847667772" lon="30.0124732498">
        <ele>114.05</ele>
        <time>2026-04-22T11:19:06.000Z</time>
      </trkpt>
      <trkpt lat="59.0847845469" lon="30.0124569889">
        <ele>115.01</ele>
        <time>2026-04-22T11:19:43.000Z</time>
      </trkpt>
      <trkpt lat="59.0847530309" lon="30.0125131477">
        <ele>115.01</ele>
        <time>2026-04-22T11:20:19.000Z</time>
      </trkpt>
      <trkpt lat="59.0847558808" lon="30.0125005748">
        <ele>115.01</ele>
        <time>2026-04-22T11:21:06.000Z</time>
      </trkpt>
      <trkpt lat="59.0847597364" lon="30.0124925282">
        <ele>115.01</ele>
        <time>2026-04-22T11:21:46.000Z</time>
      </trkpt>
      <trkpt lat="59.0847579762" lon="30.012485655">
        <ele>115.01</ele>
        <time>2026-04-22T11:22:38.000Z</time>
      </trkpt>
      <trkpt lat="59.084748337" lon="30.0125164166">
        <ele>115.01</ele>
        <time>2026-04-22T11:23:38.000Z</time>
      </trkpt>
      <trkpt lat="59.0847236104" lon="30.0125598349">
        <ele>115.01</ele>
        <time>2026-04-22T11:24:34.000Z</time>
      </trkpt>
      <trkpt lat="59.0847449005" lon="30.0125407241">
        <ele>115.01</ele>
        <time>2026-04-22T11:25:11.000Z</time>
      </trkpt>
      <trkpt lat="59.0847298969" lon="30.0125325099">
        <ele>115.01</ele>
        <time>2026-04-22T11:25:44.000Z</time>
      </trkpt>
      <trkpt lat="59.0847408772" lon="30.0125765987">
        <ele>115.01</ele>
        <time>2026-04-22T11:26:14.000Z</time>
      </trkpt>
      <trkpt lat="59.0847101156" lon="30.0126221124">
        <ele>115.01</ele>
        <time>2026-04-22T11:26:43.000Z</time>
      </trkpt>
      <trkpt lat="59.084600145" lon="30.012658406">
        <ele>115.01</ele>
        <time>2026-04-22T11:27:02.000Z</time>
      </trkpt>
      <trkpt lat="59.0845994744" lon="30.0126625132">
        <ele>115.01</ele>
        <time>2026-04-22T11:27:03.000Z</time>
      </trkpt>
      <trkpt lat="59.084581621" lon="30.0126787741">
        <ele>115.01</ele>
        <time>2026-04-22T11:27:05.000Z</time>
      </trkpt>
      <trkpt lat="59.0843066946" lon="30.0128068496">
        <ele>115.98</ele>
        <time>2026-04-22T11:27:35.000Z</time>
      </trkpt>
      <trkpt lat="59.0841111448" lon="30.0127439853">
        <ele>116.46</ele>
        <time>2026-04-22T11:28:02.000Z</time>
      </trkpt>
      <trkpt lat="59.0840632003" lon="30.0125045143">
        <ele>116.46</ele>
        <time>2026-04-22T11:28:27.000Z</time>
      </trkpt>
      <trkpt lat="59.0840771142" lon="30.0124674663">
        <ele>116.46</ele>
        <time>2026-04-22T11:28:31.000Z</time>
      </trkpt>
      <trkpt lat="59.0840677265" lon="30.0123007502">
        <ele>116.46</ele>
        <time>2026-04-22T11:28:42.000Z</time>
      </trkpt>
      <trkpt lat="59.0839560796" lon="30.0120265782">
        <ele>116.46</ele>
        <time>2026-04-22T11:29:04.000Z</time>
      </trkpt>
      <trkpt lat="59.0839824826" lon="30.0115860254">
        <ele>116.46</ele>
        <time>2026-04-22T11:29:31.000Z</time>
      </trkpt>
      <trkpt lat="59.0842445008" lon="30.0113910623">
        <ele>115.01</ele>
        <time>2026-04-22T11:30:02.000Z</time>
      </trkpt>
      <trkpt lat="59.0844849776" lon="30.0112107676">
        <ele>115.5</ele>
        <time>2026-04-22T11:30:33.000Z</time>
      </trkpt>
      <trkpt lat="59.0845750831" lon="30.0110759027">
        <ele>115.5</ele>
        <time>2026-04-22T11:30:45.000Z</time>
      </trkpt>
      <trkpt lat="59.0845861472" lon="30.0107682031">
        <ele>116.46</ele>
        <time>2026-04-22T11:31:09.000Z</time>
      </trkpt>
      <trkpt lat="59.0845796093" lon="30.0106833782">
        <ele>115.98</ele>
        <time>2026-04-22T11:31:15.000Z</time>
      </trkpt>
      <trkpt lat="59.0845733229" lon="30.0102336053">
        <ele>115.98</ele>
        <time>2026-04-22T11:31:45.000Z</time>
      </trkpt>
      <trkpt lat="59.0845340956" lon="30.0102674682">
        <ele>115.98</ele>
        <time>2026-04-22T11:32:12.000Z</time>
      </trkpt>
      <trkpt lat="59.0843134839" lon="30.0102116447">
        <ele>116.46</ele>
        <time>2026-04-22T11:32:35.000Z</time>
      </trkpt>
      <trkpt lat="59.0842287429" lon="30.0103181787">
        <ele>116.46</ele>
        <time>2026-04-22T11:32:53.000Z</time>
      </trkpt>
      <trkpt lat="59.0842162538" lon="30.0103452522">
        <ele>116.46</ele>
        <time>2026-04-22T11:32:55.000Z</time>
      </trkpt>
      <trkpt lat="59.0841159225" lon="30.0104534626">
        <ele>116.94</ele>
        <time>2026-04-22T11:33:11.000Z</time>
      </trkpt>
      <trkpt lat="59.0840799641" lon="30.0104998145">
        <ele>116.94</ele>
        <time>2026-04-22T11:33:17.000Z</time>
      </trkpt>
      <trkpt lat="59.0838717576" lon="30.0105935242">
        <ele>117.42</ele>
        <time>2026-04-22T11:33:44.000Z</time>
      </trkpt>
      <trkpt lat="59.0837866813" lon="30.0104771834">
        <ele>116.94</ele>
        <time>2026-04-22T11:34:12.000Z</time>
      </trkpt>
      <trkpt lat="59.0837378986" lon="30.0103335176">
        <ele>116.94</ele>
        <time>2026-04-22T11:34:34.000Z</time>
      </trkpt>
      <trkpt lat="59.0837400779" lon="30.0102898479">
        <ele>116.94</ele>
        <time>2026-04-22T11:34:37.000Z</time>
      </trkpt>
      <trkpt lat="59.083759021" lon="30.0098709203">
        <ele>116.94</ele>
        <time>2026-04-22T11:35:03.000Z</time>
      </trkpt>
      <trkpt lat="59.0837964043" lon="30.0096411724">
        <ele>116.46</ele>
        <time>2026-04-22T11:35:26.000Z</time>
      </trkpt>
      <trkpt lat="59.0838038642" lon="30.0095177907">
        <ele>115.98</ele>
        <time>2026-04-22T11:35:36.000Z</time>
      </trkpt>
      <trkpt lat="59.0837972425" lon="30.0094523281">
        <ele>116.94</ele>
        <time>2026-04-22T11:35:41.000Z</time>
      </trkpt>
      <trkpt lat="59.0838839114" lon="30.0090960972">
        <ele>116.94</ele>
        <time>2026-04-22T11:36:14.000Z</time>
      </trkpt>
      <trkpt lat="59.0841685608" lon="30.0089286268">
        <ele>116.94</ele>
        <time>2026-04-22T11:36:45.000Z</time>
      </trkpt>
      <trkpt lat="59.0844097082" lon="30.008636266">
        <ele>116.94</ele>
        <time>2026-04-22T11:37:18.000Z</time>
      </trkpt>
      <trkpt lat="59.0844097082" lon="30.0086201727">
        <ele>116.94</ele>
        <time>2026-04-22T11:37:19.000Z</time>
      </trkpt>
      <trkpt lat="59.0843766835" lon="30.0083938614">
        <ele>115.98</ele>
        <time>2026-04-22T11:37:37.000Z</time>
      </trkpt>
      <trkpt lat="59.084324548" lon="30.0081465952">
        <ele>116.94</ele>
        <time>2026-04-22T11:37:56.000Z</time>
      </trkpt>
      <trkpt lat="59.0843165014" lon="30.0081154145">
        <ele>116.94</ele>
        <time>2026-04-22T11:37:58.000Z</time>
      </trkpt>
      <trkpt lat="59.0842863265" lon="30.0079695694">
        <ele>116.46</ele>
        <time>2026-04-22T11:38:08.000Z</time>
      </trkpt>
      <trkpt lat="59.0843211114" lon="30.0077649672">
        <ele>116.94</ele>
        <time>2026-04-22T11:38:39.000Z</time>
      </trkpt>
      <trkpt lat="59.0842368733" lon="30.007767817">
        <ele>116.94</ele>
        <time>2026-04-22T11:39:10.000Z</time>
      </trkpt>
      <trkpt lat="59.0842221212" lon="30.0077727623">
        <ele>116.94</ele>
        <time>2026-04-22T11:39:13.000Z</time>
      </trkpt>
      <trkpt lat="59.0840571653" lon="30.0078223832">
        <ele>116.94</ele>
        <time>2026-04-22T11:39:34.000Z</time>
      </trkpt>
      <trkpt lat="59.0839204565" lon="30.0077954773">
        <ele>116.94</ele>
        <time>2026-04-22T11:39:54.000Z</time>
      </trkpt>
      <trkpt lat="59.0838698298" lon="30.0077746902">
        <ele>116.94</ele>
        <time>2026-04-22T11:40:04.000Z</time>
      </trkpt>
      <trkpt lat="59.0838501323" lon="30.0077715889">
        <ele>116.94</ele>
        <time>2026-04-22T11:40:06.000Z</time>
      </trkpt>
      <trkpt lat="59.0837953985" lon="30.0078181922">
        <ele>117.42</ele>
        <time>2026-04-22T11:40:16.000Z</time>
      </trkpt>
      <trkpt lat="59.0837070532" lon="30.007916512">
        <ele>117.9</ele>
        <time>2026-04-22T11:40:29.000Z</time>
      </trkpt>
      <trkpt lat="59.0836087335" lon="30.0080377981">
        <ele>118.38</ele>
        <time>2026-04-22T11:40:46.000Z</time>
      </trkpt>
      <trkpt lat="59.08355291" lon="30.007796064">
        <ele>118.38</ele>
        <time>2026-04-22T11:41:12.000Z</time>
      </trkpt>
      <trkpt lat="59.0835160296" lon="30.0077234767">
        <ele>118.86</ele>
        <time>2026-04-22T11:41:21.000Z</time>
      </trkpt>
      <trkpt lat="59.0835108329" lon="30.0074343849">
        <ele>118.86</ele>
        <time>2026-04-22T11:41:42.000Z</time>
      </trkpt>
      <trkpt lat="59.0835032053" lon="30.0073795673">
        <ele>119.34</ele>
        <time>2026-04-22T11:41:45.000Z</time>
      </trkpt>
      <trkpt lat="59.0834962483" lon="30.007303711">
        <ele>119.82</ele>
        <time>2026-04-22T11:41:49.000Z</time>
      </trkpt>
      <trkpt lat="59.0834935661" lon="30.0072157849">
        <ele>119.34</ele>
        <time>2026-04-22T11:41:56.000Z</time>
      </trkpt>
      <trkpt lat="59.0833872836" lon="30.0068825204">
        <ele>118.38</ele>
        <time>2026-04-22T11:42:08.000Z</time>
      </trkpt>
      <trkpt lat="59.0835190471" lon="30.0067555346">
        <ele>118.38</ele>
        <time>2026-04-22T11:42:25.000Z</time>
      </trkpt>
      <trkpt lat="59.0836476255" lon="30.0066044088">
        <ele>118.38</ele>
        <time>2026-04-22T11:42:38.000Z</time>
      </trkpt>
      <trkpt lat="59.0836738609" lon="30.0065960269">
        <ele>118.86</ele>
        <time>2026-04-22T11:42:41.000Z</time>
      </trkpt>
      <trkpt lat="59.0839647967" lon="30.0066153053">
        <ele>117.9</ele>
        <time>2026-04-22T11:43:15.000Z</time>
      </trkpt>
      <trkpt lat="59.0841038525" lon="30.006550597">
        <ele>118.38</ele>
        <time>2026-04-22T11:43:33.000Z</time>
      </trkpt>
      <trkpt lat="59.084072588" lon="30.0064011477">
        <ele>118.86</ele>
        <time>2026-04-22T11:43:55.000Z</time>
      </trkpt>
      <trkpt lat="59.0840587579" lon="30.0062600803">
        <ele>118.86</ele>
        <time>2026-04-22T11:44:02.000Z</time>
      </trkpt>
      <trkpt lat="59.0841619391" lon="30.0059990678">
        <ele>117.9</ele>
        <time>2026-04-22T11:44:25.000Z</time>
      </trkpt>
      <trkpt lat="59.0841023438" lon="30.0056109019">
        <ele>118.38</ele>
        <time>2026-04-22T11:44:55.000Z</time>
      </trkpt>
      <trkpt lat="59.0840417426" lon="30.005316278">
        <ele>119.34</ele>
        <time>2026-04-22T11:45:20.000Z</time>
      </trkpt>
      <trkpt lat="59.0839857515" lon="30.0052746199">
        <ele>119.34</ele>
        <time>2026-04-22T11:45:56.000Z</time>
      </trkpt>
      <trkpt lat="59.0837990865" lon="30.0053059682">
        <ele>118.86</ele>
        <time>2026-04-22T11:46:22.000Z</time>
      </trkpt>
      <trkpt lat="59.083764134" lon="30.0052755419">
        <ele>118.86</ele>
        <time>2026-04-22T11:46:28.000Z</time>
      </trkpt>
      <trkpt lat="59.0837606136" lon="30.0052421819">
        <ele>118.86</ele>
        <time>2026-04-22T11:46:30.000Z</time>
      </trkpt>
      <trkpt lat="59.083643686" lon="30.0052077323">
        <ele>119.82</ele>
        <time>2026-04-22T11:47:02.000Z</time>
      </trkpt>
      <trkpt lat="59.0833924804" lon="30.0054378156">
        <ele>120.78</ele>
        <time>2026-04-22T11:47:33.000Z</time>
      </trkpt>
      <trkpt lat="59.0831793286" lon="30.0054585189">
        <ele>121.26</ele>
        <time>2026-04-22T11:48:05.000Z</time>
      </trkpt>
      <trkpt lat="59.0831559431" lon="30.0053699221">
        <ele>121.74</ele>
        <time>2026-04-22T11:48:14.000Z</time>
      </trkpt>
      <trkpt lat="59.0831372514" lon="30.0052665733">
        <ele>122.22</ele>
        <time>2026-04-22T11:48:19.000Z</time>
      </trkpt>
      <trkpt lat="59.0831320547" lon="30.0052122585">
        <ele>122.22</ele>
        <time>2026-04-22T11:48:21.000Z</time>
      </trkpt>
      <trkpt lat="59.0830973536" lon="30.0049867015">
        <ele>121.74</ele>
        <time>2026-04-22T11:48:34.000Z</time>
      </trkpt>
      <trkpt lat="59.0831014607" lon="30.0049230829">
        <ele>121.74</ele>
        <time>2026-04-22T11:48:37.000Z</time>
      </trkpt>
      <trkpt lat="59.0831398498" lon="30.0045484118">
        <ele>121.74</ele>
        <time>2026-04-22T11:49:00.000Z</time>
      </trkpt>
      <trkpt lat="59.0831250139" lon="30.004321849">
        <ele>121.74</ele>
        <time>2026-04-22T11:49:18.000Z</time>
      </trkpt>
      <trkpt lat="59.0831198171" lon="30.0042777602">
        <ele>121.74</ele>
        <time>2026-04-22T11:49:21.000Z</time>
      </trkpt>
      <trkpt lat="59.0831252653" lon="30.0042133871">
        <ele>122.22</ele>
        <time>2026-04-22T11:49:26.000Z</time>
      </trkpt>
      <trkpt lat="59.0833576955" lon="30.0041701365">
        <ele>121.74</ele>
        <time>2026-04-22T11:49:55.000Z</time>
      </trkpt>
      <trkpt lat="59.0836253297" lon="30.004082378">
        <ele>121.74</ele>
        <time>2026-04-22T11:50:22.000Z</time>
      </trkpt>
      <trkpt lat="59.0838299319" lon="30.0038942881">
        <ele>121.26</ele>
        <time>2026-04-22T11:50:54.000Z</time>
      </trkpt>
      <trkpt lat="59.083826663" lon="30.00373872">
        <ele>121.74</ele>
        <time>2026-04-22T11:51:03.000Z</time>
      </trkpt>
      <trkpt lat="59.0836925525" lon="30.0031519029">
        <ele>121.74</ele>
        <time>2026-04-22T11:51:36.000Z</time>
      </trkpt>
      <trkpt lat="59.0836889483" lon="30.0031457841">
        <ele>121.74</ele>
        <time>2026-04-22T11:51:37.000Z</time>
      </trkpt>
      <trkpt lat="59.0836868528" lon="30.0030343048">
        <ele>122.22</ele>
        <time>2026-04-22T11:51:44.000Z</time>
      </trkpt>
      <trkpt lat="59.0836399142" lon="30.0029895455">
        <ele>121.74</ele>
        <time>2026-04-22T11:52:13.000Z</time>
      </trkpt>
      <trkpt lat="59.0836422611" lon="30.0030075666">
        <ele>121.26</ele>
        <time>2026-04-22T11:52:50.000Z</time>
      </trkpt>
      <trkpt lat="59.0835194662" lon="30.0030778069">
        <ele>121.74</ele>
        <time>2026-04-22T11:53:15.000Z</time>
      </trkpt>
      <trkpt lat="59.0834850166" lon="30.0030398369">
        <ele>121.74</ele>
        <time>2026-04-22T11:53:20.000Z</time>
      </trkpt>
      <trkpt lat="59.083433887" lon="30.00304671">
        <ele>122.22</ele>
        <time>2026-04-22T11:53:25.000Z</time>
      </trkpt>
      <trkpt lat="59.0833980124" lon="30.0030548405">
        <ele>122.22</ele>
        <time>2026-04-22T11:53:31.000Z</time>
      </trkpt>
      <trkpt lat="59.0833825897" lon="30.0030651502">
        <ele>122.22</ele>
        <time>2026-04-22T11:53:33.000Z</time>
      </trkpt>
      <trkpt lat="59.0833297838" lon="30.0030924752">
        <ele>122.22</ele>
        <time>2026-04-22T11:53:40.000Z</time>
      </trkpt>
      <trkpt lat="59.0831387602" lon="30.0031214766">
        <ele>122.22</ele>
        <time>2026-04-22T11:54:11.000Z</time>
      </trkpt>
      <trkpt lat="59.0831051487" lon="30.0031589437">
        <ele>122.22</ele>
        <time>2026-04-22T11:54:15.000Z</time>
      </trkpt>
      <trkpt lat="59.0830278676" lon="30.0031881128">
        <ele>121.74</ele>
        <time>2026-04-22T11:54:23.000Z</time>
      </trkpt>
      <trkpt lat="59.0829771571" lon="30.0029538386">
        <ele>122.71</ele>
        <time>2026-04-22T11:54:43.000Z</time>
      </trkpt>
      <trkpt lat="59.0829859581" lon="30.0029034633">
        <ele>122.22</ele>
        <time>2026-04-22T11:54:46.000Z</time>
      </trkpt>
      <trkpt lat="59.0829447191" lon="30.0024373457">
        <ele>122.71</ele>
        <time>2026-04-22T11:55:15.000Z</time>
      </trkpt>
      <trkpt lat="59.0829101857" lon="30.0023895688">
        <ele>122.22</ele>
        <time>2026-04-22T11:55:24.000Z</time>
      </trkpt>
      <trkpt lat="59.0828670189" lon="30.0019808672">
        <ele>122.71</ele>
        <time>2026-04-22T11:55:41.000Z</time>
      </trkpt>
      <trkpt lat="59.0828541107" lon="30.0019377004">
        <ele>122.71</ele>
        <time>2026-04-22T11:55:44.000Z</time>
      </trkpt>
      <trkpt lat="59.0830678493" lon="30.001737792">
        <ele>122.22</ele>
        <time>2026-04-22T11:56:16.000Z</time>
      </trkpt>
      <trkpt lat="59.0833812486" lon="30.0016436633">
        <ele>122.22</ele>
        <time>2026-04-22T11:56:47.000Z</time>
      </trkpt>
      <trkpt lat="59.0835729428" lon="30.0015429966">
        <ele>122.22</ele>
        <time>2026-04-22T11:57:17.000Z</time>
      </trkpt>
      <trkpt lat="59.0835624654" lon="30.0013243128">
        <ele>122.71</ele>
        <time>2026-04-22T11:57:36.000Z</time>
      </trkpt>
      <trkpt lat="59.0834939014" lon="30.0005841907">
        <ele>122.71</ele>
        <time>2026-04-22T11:58:13.000Z</time>
      </trkpt>
      <trkpt lat="59.0834810771" lon="30.0005245116">
        <ele>122.71</ele>
        <time>2026-04-22T11:58:15.000Z</time>
      </trkpt>
      <trkpt lat="59.0834418498" lon="30.0003399421">
        <ele>122.22</ele>
        <time>2026-04-22T11:58:23.000Z</time>
      </trkpt>
      <trkpt lat="59.0834195539" lon="30.0002460647">
        <ele>122.71</ele>
        <time>2026-04-22T11:58:53.000Z</time>
      </trkpt>
      <trkpt lat="59.0833985992" lon="30.000286717">
        <ele>122.71</ele>
        <time>2026-04-22T11:59:03.000Z</time>
      </trkpt>
      <trkpt lat="59.0831235051" lon="30.0004342385">
        <ele>122.71</ele>
        <time>2026-04-22T11:59:33.000Z</time>
      </trkpt>
      <trkpt lat="59.0828997083" lon="30.0005401019">
        <ele>122.71</ele>
        <time>2026-04-22T12:00:08.000Z</time>
      </trkpt>
      <trkpt lat="59.082736345" lon="30.0006226636">
        <ele>124.15</ele>
        <time>2026-04-22T12:00:37.000Z</time>
      </trkpt>
      <trkpt lat="59.0827133786" lon="30.0005835202">
        <ele>124.63</ele>
        <time>2026-04-22T12:00:42.000Z</time>
      </trkpt>
      <trkpt lat="59.0826975368" lon="30.0005143695">
        <ele>124.63</ele>
        <time>2026-04-22T12:00:46.000Z</time>
      </trkpt>
      <trkpt lat="59.0826646797" lon="30.0003323145">
        <ele>124.63</ele>
        <time>2026-04-22T12:01:00.000Z</time>
      </trkpt>
      <trkpt lat="59.0825884044" lon="29.9997636862">
        <ele>124.15</ele>
        <time>2026-04-22T12:01:31.000Z</time>
      </trkpt>
      <trkpt lat="59.0826662723" lon="29.9992931262">
        <ele>124.15</ele>
        <time>2026-04-22T12:02:00.000Z</time>
      </trkpt>
      <trkpt lat="59.0829875506" lon="29.9992077984">
        <ele>124.15</ele>
        <time>2026-04-22T12:02:29.000Z</time>
      </trkpt>
      <trkpt lat="59.083297262" lon="29.9990744423">
        <ele>124.15</ele>
        <time>2026-04-22T12:02:59.000Z</time>
      </trkpt>
      <trkpt lat="59.0833276045" lon="29.9988051318">
        <ele>124.15</ele>
        <time>2026-04-22T12:03:27.000Z</time>
      </trkpt>
      <trkpt lat="59.0833084937" lon="29.9987561814">
        <ele>124.15</ele>
        <time>2026-04-22T12:03:31.000Z</time>
      </trkpt>
      <trkpt lat="59.0831033047" lon="29.9980601482">
        <ele>124.63</ele>
        <time>2026-04-22T12:04:04.000Z</time>
      </trkpt>
      <trkpt lat="59.0830613114" lon="29.9979161471">
        <ele>125.11</ele>
        <time>2026-04-22T12:04:26.000Z</time>
      </trkpt>
      <trkpt lat="59.0830690227" lon="29.9978664424">
        <ele>125.11</ele>
        <time>2026-04-22T12:05:00.000Z</time>
      </trkpt>
      <trkpt lat="59.0830483194" lon="29.9978855532">
        <ele>125.11</ele>
        <time>2026-04-22T12:05:26.000Z</time>
      </trkpt>
      <trkpt lat="59.0830454696" lon="29.9978415482">
        <ele>125.11</ele>
        <time>2026-04-22T12:06:07.000Z</time>
      </trkpt>
      <trkpt lat="59.0830512531" lon="29.9977931846">
        <ele>125.11</ele>
        <time>2026-04-22T12:06:41.000Z</time>
      </trkpt>
      <trkpt lat="59.0830551926" lon="29.9977118801">
        <ele>125.11</ele>
        <time>2026-04-22T12:07:14.000Z</time>
      </trkpt>
      <trkpt lat="59.0829304699" lon="29.9978566356">
        <ele>125.11</ele>
        <time>2026-04-22T12:07:44.000Z</time>
      </trkpt>
      <trkpt lat="59.0826830361" lon="29.997931486">
        <ele>125.11</ele>
        <time>2026-04-22T12:08:06.000Z</time>
      </trkpt>
      <trkpt lat="59.0826364327" lon="29.9979321565">
        <ele>125.11</ele>
        <time>2026-04-22T12:08:12.000Z</time>
      </trkpt>
      <trkpt lat="59.0823302418" lon="29.9981429614">
        <ele>126.55</ele>
        <time>2026-04-22T12:08:43.000Z</time>
      </trkpt>
      <trkpt lat="59.0823328402" lon="29.9980168138">
        <ele>127.03</ele>
        <time>2026-04-22T12:08:54.000Z</time>
      </trkpt>
      <trkpt lat="59.0823072754" lon="29.9979328271">
        <ele>127.03</ele>
        <time>2026-04-22T12:09:01.000Z</time>
      </trkpt>
      <trkpt lat="59.0822884161" lon="29.9978298135">
        <ele>127.51</ele>
        <time>2026-04-22T12:09:07.000Z</time>
      </trkpt>
      <trkpt lat="59.0823293198" lon="29.9973755144">
        <ele>127.99</ele>
        <time>2026-04-22T12:09:33.000Z</time>
      </trkpt>
      <trkpt lat="59.0824581496" lon="29.9969345424">
        <ele>127.03</ele>
        <time>2026-04-22T12:10:09.000Z</time>
      </trkpt>
      <trkpt lat="59.0827328246" lon="29.9967239052">
        <ele>127.51</ele>
        <time>2026-04-22T12:10:37.000Z</time>
      </trkpt>
      <trkpt lat="59.0830497444" lon="29.9965664931">
        <ele>125.59</ele>
        <time>2026-04-22T12:11:05.000Z</time>
      </trkpt>
      <trkpt lat="59.0830034763" lon="29.9963119347">
        <ele>126.55</ele>
        <time>2026-04-22T12:11:26.000Z</time>
      </trkpt>
      <trkpt lat="59.082926698" lon="29.9960142095">
        <ele>127.03</ele>
        <time>2026-04-22T12:11:47.000Z</time>
      </trkpt>
      <trkpt lat="59.0829240158" lon="29.9960017204">
        <ele>127.03</ele>
        <time>2026-04-22T12:11:48.000Z</time>
      </trkpt>
      <trkpt lat="59.082844723" lon="29.9957345892">
        <ele>127.03</ele>
        <time>2026-04-22T12:12:16.000Z</time>
      </trkpt>
      <trkpt lat="59.0826732293" lon="29.9957546219">
        <ele>127.51</ele>
        <time>2026-04-22T12:12:42.000Z</time>
      </trkpt>
      <trkpt lat="59.0824322496" lon="29.9957821984">
        <ele>127.03</ele>
        <time>2026-04-22T12:13:03.000Z</time>
      </trkpt>
      <trkpt lat="59.0822650306" lon="29.9959562905">
        <ele>127.03</ele>
        <time>2026-04-22T12:13:19.000Z</time>
      </trkpt>
      <trkpt lat="59.0821179282" lon="29.9959324859">
        <ele>127.51</ele>
        <time>2026-04-22T12:13:36.000Z</time>
      </trkpt>
      <trkpt lat="59.0820729174" lon="29.9958645925">
        <ele>127.03</ele>
        <time>2026-04-22T12:13:49.000Z</time>
      </trkpt>
      <trkpt lat="59.081981387" lon="29.9952910189">
        <ele>127.03</ele>
        <time>2026-04-22T12:14:21.000Z</time>
      </trkpt>
      <trkpt lat="59.0820592549" lon="29.9950032681">
        <ele>126.55</ele>
        <time>2026-04-22T12:14:52.000Z</time>
      </trkpt>
      <trkpt lat="59.0820389707" lon="29.9949550722">
        <ele>127.03</ele>
        <time>2026-04-22T12:14:56.000Z</time>
      </trkpt>
      <trkpt lat="59.0821470972" lon="29.9947777949">
        <ele>127.03</ele>
        <time>2026-04-22T12:15:28.000Z</time>
      </trkpt>
      <trkpt lat="59.0822905954" lon="29.9946685787">
        <ele>127.03</ele>
        <time>2026-04-22T12:15:56.000Z</time>
      </trkpt>
      <trkpt lat="59.0824974608" lon="29.994508652">
        <ele>127.03</ele>
        <time>2026-04-22T12:16:20.000Z</time>
      </trkpt>
      <trkpt lat="59.0826884005" lon="29.9943239987">
        <ele>127.03</ele>
        <time>2026-04-22T12:16:51.000Z</time>
      </trkpt>
      <trkpt lat="59.082595529" lon="29.9938090984">
        <ele>127.03</ele>
        <time>2026-04-22T12:17:22.000Z</time>
      </trkpt>
      <trkpt lat="59.0824599098" lon="29.9932517856">
        <ele>127.03</ele>
        <time>2026-04-22T12:17:52.000Z</time>
      </trkpt>
      <trkpt lat="59.0824664477" lon="29.9931341037">
        <ele>127.03</ele>
        <time>2026-04-22T12:18:04.000Z</time>
      </trkpt>
      <trkpt lat="59.0824490134" lon="29.9930149131">
        <ele>127.03</ele>
        <time>2026-04-22T12:18:35.000Z</time>
      </trkpt>
      <trkpt lat="59.0824954491" lon="29.9929220416">
        <ele>127.03</ele>
        <time>2026-04-22T12:19:06.000Z</time>
      </trkpt>
      <trkpt lat="59.0824726503" lon="29.9929589219">
        <ele>127.03</ele>
        <time>2026-04-22T12:19:32.000Z</time>
      </trkpt>
      <trkpt lat="59.0824180003" lon="29.9929632805">
        <ele>127.03</ele>
        <time>2026-04-22T12:19:39.000Z</time>
      </trkpt>
      <trkpt lat="59.082274586" lon="29.9930873327">
        <ele>126.55</ele>
        <time>2026-04-22T12:19:56.000Z</time>
      </trkpt>
      <trkpt lat="59.0822077822" lon="29.9931453355">
        <ele>126.55</ele>
        <time>2026-04-22T12:20:27.000Z</time>
      </trkpt>
      <trkpt lat="59.0822019149" lon="29.9931809586">
        <ele>126.55</ele>
        <time>2026-04-22T12:20:31.000Z</time>
      </trkpt>
      <trkpt lat="59.0821903478" lon="29.9932143185">
        <ele>126.55</ele>
        <time>2026-04-22T12:20:33.000Z</time>
      </trkpt>
      <trkpt lat="59.0821694769" lon="29.9932695553">
        <ele>126.55</ele>
        <time>2026-04-22T12:20:36.000Z</time>
      </trkpt>
      <trkpt lat="59.0819543134" lon="29.9934916757">
        <ele>126.55</ele>
        <time>2026-04-22T12:20:56.000Z</time>
      </trkpt>
      <trkpt lat="59.0819402318" lon="29.9934986327">
        <ele>126.55</ele>
        <time>2026-04-22T12:20:58.000Z</time>
      </trkpt>
      <trkpt lat="59.0817727614" lon="29.9933605827">
        <ele>126.55</ele>
        <time>2026-04-22T12:21:26.000Z</time>
      </trkpt>
      <trkpt lat="59.0817578416" lon="29.9932424817">
        <ele>127.03</ele>
        <time>2026-04-22T12:21:52.000Z</time>
      </trkpt>
      <trkpt lat="59.0817133337" lon="29.9930799566">
        <ele>127.03</ele>
        <time>2026-04-22T12:22:07.000Z</time>
      </trkpt>
      <trkpt lat="59.0816179477" lon="29.9927028548">
        <ele>127.03</ele>
        <time>2026-04-22T12:22:30.000Z</time>
      </trkpt>
      <trkpt lat="59.081605291" lon="29.9923680816">
        <ele>127.03</ele>
        <time>2026-04-22T12:22:56.000Z</time>
      </trkpt>
      <trkpt lat="59.0815784689" lon="29.9921676703">
        <ele>127.03</ele>
        <time>2026-04-22T12:23:14.000Z</time>
      </trkpt>
      <trkpt lat="59.0815562569" lon="29.9918768182">
        <ele>127.03</ele>
        <time>2026-04-22T12:23:42.000Z</time>
      </trkpt>
      <trkpt lat="59.0816251561" lon="29.9919622298">
        <ele>127.51</ele>
        <time>2026-04-22T12:24:02.000Z</time>
      </trkpt>
      <trkpt lat="59.0819046088" lon="29.9921749625">
        <ele>127.51</ele>
        <time>2026-04-22T12:24:31.000Z</time>
      </trkpt>
      <trkpt lat="59.0820865799" lon="29.9921522476">
        <ele>127.51</ele>
        <time>2026-04-22T12:25:00.000Z</time>
      </trkpt>
      <trkpt lat="59.0823724028" lon="29.9919400178">
        <ele>127.03</ele>
        <time>2026-04-22T12:25:31.000Z</time>
      </trkpt>
      <trkpt lat="59.0823447425" lon="29.9915604852">
        <ele>127.03</ele>
        <time>2026-04-22T12:25:54.000Z</time>
      </trkpt>
      <trkpt lat="59.0823299065" lon="29.9913894106">
        <ele>127.03</ele>
        <time>2026-04-22T12:26:05.000Z</time>
      </trkpt>
      <trkpt lat="59.0823912621" lon="29.991249349">
        <ele>126.55</ele>
        <time>2026-04-22T12:26:16.000Z</time>
      </trkpt>
      <trkpt lat="59.0824842174" lon="29.9908551481">
        <ele>127.99</ele>
        <time>2026-04-22T12:26:34.000Z</time>
      </trkpt>
      <trkpt lat="59.0825240314" lon="29.990530517">
        <ele>129.92</ele>
        <time>2026-04-22T12:26:49.000Z</time>
      </trkpt>
      <trkpt lat="59.0825690422" lon="29.9902230687">
        <ele>128.95</ele>
        <time>2026-04-22T12:27:05.000Z</time>
      </trkpt>
      <trkpt lat="59.0826260392" lon="29.9899196438">
        <ele>128.95</ele>
        <time>2026-04-22T12:27:24.000Z</time>
      </trkpt>
      <trkpt lat="59.0826517716" lon="29.9896249361">
        <ele>129.92</ele>
        <time>2026-04-22T12:27:41.000Z</time>
      </trkpt>
      <trkpt lat="59.0827403683" lon="29.9893912487">
        <ele>129.92</ele>
        <time>2026-04-22T12:27:57.000Z</time>
      </trkpt>
      <trkpt lat="59.082784541" lon="29.9893774185">
        <ele>129.92</ele>
        <time>2026-04-22T12:28:22.000Z</time>
      </trkpt>
      <trkpt lat="59.083020743" lon="29.9893995468">
        <ele>129.43</ele>
        <time>2026-04-22T12:28:38.000Z</time>
      </trkpt>
      <trkpt lat="59.0831083339" lon="29.9894144665">
        <ele>129.43</ele>
        <time>2026-04-22T12:28:43.000Z</time>
      </trkpt>
      <trkpt lat="59.0832145326" lon="29.9894188251">
        <ele>129.43</ele>
        <time>2026-04-22T12:28:50.000Z</time>
      </trkpt>
      <trkpt lat="59.0832700208" lon="29.989446234">
        <ele>128.95</ele>
        <time>2026-04-22T12:29:06.000Z</time>
      </trkpt>
      <trkpt lat="59.08327966" lon="29.9894479942">
        <ele>128.95</ele>
        <time>2026-04-22T12:29:07.000Z</time>
      </trkpt>
      <trkpt lat="59.0834110044" lon="29.9894668534">
        <ele>128.47</ele>
        <time>2026-04-22T12:29:16.000Z</time>
      </trkpt>
      <trkpt lat="59.0835624654" lon="29.9895835295">
        <ele>127.99</ele>
        <time>2026-04-22T12:29:34.000Z</time>
      </trkpt>
      <trkpt lat="59.0837115794" lon="29.989709761">
        <ele>127.51</ele>
        <time>2026-04-22T12:29:49.000Z</time>
      </trkpt>
      <trkpt lat="59.0838320274" lon="29.9897150416">
        <ele>127.99</ele>
        <time>2026-04-22T12:30:04.000Z</time>
      </trkpt>
      <trkpt lat="59.0840566624" lon="29.9898157921">
        <ele>127.99</ele>
        <time>2026-04-22T12:30:24.000Z</time>
      </trkpt>
      <trkpt lat="59.0842828061" lon="29.9898906425">
        <ele>127.51</ele>
        <time>2026-04-22T12:30:42.000Z</time>
      </trkpt>
      <trkpt lat="59.0845041722" lon="29.9899709411">
        <ele>128.95</ele>
        <time>2026-04-22T12:31:00.000Z</time>
      </trkpt>
      <trkpt lat="59.0846148971" lon="29.9900087435">
        <ele>127.51</ele>
        <time>2026-04-22T12:31:12.000Z</time>
      </trkpt>
      <trkpt lat="59.0846359357" lon="29.9899939075">
        <ele>127.51</ele>
        <time>2026-04-22T12:31:15.000Z</time>
      </trkpt>
      <trkpt lat="59.0848003048" lon="29.9899873696">
        <ele>127.99</ele>
        <time>2026-04-22T12:31:31.000Z</time>
      </trkpt>
      <trkpt lat="59.0850073379" lon="29.9900286924">
        <ele>128.47</ele>
        <time>2026-04-22T12:31:46.000Z</time>
      </trkpt>
      <trkpt lat="59.0851440467" lon="29.9900831748">
        <ele>128.47</ele>
        <time>2026-04-22T12:31:57.000Z</time>
      </trkpt>
      <trkpt lat="59.0852774028" lon="29.9901115894">
        <ele>128.47</ele>
        <time>2026-04-22T12:32:08.000Z</time>
      </trkpt>
      <trkpt lat="59.0853682626" lon="29.9901682511">
        <ele>127.99</ele>
        <time>2026-04-22T12:32:15.000Z</time>
      </trkpt>
      <trkpt lat="59.0855002776" lon="29.9901954085">
        <ele>128.95</ele>
        <time>2026-04-22T12:32:26.000Z</time>
      </trkpt>
      <trkpt lat="59.0857672412" lon="29.9903006852">
        <ele>128.47</ele>
        <time>2026-04-22T12:32:48.000Z</time>
      </trkpt>
      <trkpt lat="59.0859552473" lon="29.9903337937">
        <ele>128.95</ele>
        <time>2026-04-22T12:33:05.000Z</time>
      </trkpt>
      <trkpt lat="59.0861606877" lon="29.9903624598">
        <ele>128.95</ele>
        <time>2026-04-22T12:33:22.000Z</time>
      </trkpt>
      <trkpt lat="59.0863720793" lon="29.9904819019">
        <ele>128.95</ele>
        <time>2026-04-22T12:33:40.000Z</time>
      </trkpt>
      <trkpt lat="59.0866254643" lon="29.9905443471">
        <ele>128.95</ele>
        <time>2026-04-22T12:34:01.000Z</time>
      </trkpt>
      <trkpt lat="59.0868415497" lon="29.990602769">
        <ele>127.99</ele>
        <time>2026-04-22T12:34:18.000Z</time>
      </trkpt>
      <trkpt lat="59.0870748181" lon="29.990719948">
        <ele>128.47</ele>
        <time>2026-04-22T12:34:36.000Z</time>
      </trkpt>
      <trkpt lat="59.0872667637" lon="29.9908020068">
        <ele>128.47</ele>
        <time>2026-04-22T12:34:51.000Z</time>
      </trkpt>
      <trkpt lat="59.087478742" lon="29.9908859935">
        <ele>128.47</ele>
        <time>2026-04-22T12:35:09.000Z</time>
      </trkpt>
      <trkpt lat="59.0876870323" lon="29.9909222033">
        <ele>128.47</ele>
        <time>2026-04-22T12:35:27.000Z</time>
      </trkpt>
      <trkpt lat="59.0879234858" lon="29.9910094589">
        <ele>127.99</ele>
        <time>2026-04-22T12:35:46.000Z</time>
      </trkpt>
      <trkpt lat="59.088194808" lon="29.9910681322">
        <ele>127.99</ele>
        <time>2026-04-22T12:36:07.000Z</time>
      </trkpt>
      <trkpt lat="59.0884751827" lon="29.9911672901">
        <ele>129.43</ele>
        <time>2026-04-22T12:36:27.000Z</time>
      </trkpt>
      <trkpt lat="59.0885089617" lon="29.9911801144">
        <ele>129.43</ele>
        <time>2026-04-22T12:36:31.000Z</time>
      </trkpt>
      <trkpt lat="59.0885416511" lon="29.9911941122">
        <ele>129.43</ele>
        <time>2026-04-22T12:36:34.000Z</time>
      </trkpt>
      <trkpt lat="59.0887605026" lon="29.9912319984">
        <ele>128.95</ele>
        <time>2026-04-22T12:36:52.000Z</time>
      </trkpt>
      <trkpt lat="59.0889796056" lon="29.9913141411">
        <ele>128.95</ele>
        <time>2026-04-22T12:37:10.000Z</time>
      </trkpt>
      <trkpt lat="59.0891948529" lon="29.9913973734">
        <ele>127.99</ele>
        <time>2026-04-22T12:37:25.000Z</time>
      </trkpt>
      <trkpt lat="59.0892777499" lon="29.9914204236">
        <ele>127.51</ele>
        <time>2026-04-22T12:37:31.000Z</time>
      </trkpt>
      <trkpt lat="59.0893315617" lon="29.9914314877">
        <ele>127.99</ele>
        <time>2026-04-22T12:37:35.000Z</time>
      </trkpt>
      <trkpt lat="59.089534739" lon="29.9914929271">
        <ele>127.99</ele>
        <time>2026-04-22T12:37:51.000Z</time>
      </trkpt>
      <trkpt lat="59.0896432847" lon="29.9915779196">
        <ele>127.03</ele>
        <time>2026-04-22T12:37:59.000Z</time>
      </trkpt>
      <trkpt lat="59.0897157043" lon="29.9916532729">
        <ele>127.03</ele>
        <time>2026-04-22T12:38:06.000Z</time>
      </trkpt>
      <trkpt lat="59.0898391698" lon="29.9916905724">
        <ele>127.03</ele>
        <time>2026-04-22T12:38:17.000Z</time>
      </trkpt>
      <trkpt lat="59.0900820773" lon="29.9917184003">
        <ele>126.55</ele>
        <time>2026-04-22T12:38:38.000Z</time>
      </trkpt>
      <trkpt lat="59.0901461989" lon="29.9917709548">
        <ele>127.03</ele>
        <time>2026-04-22T12:38:54.000Z</time>
      </trkpt>
      <trkpt lat="59.0902026929" lon="29.9917899817">
        <ele>127.03</ele>
        <time>2026-04-22T12:39:04.000Z</time>
      </trkpt>
      <trkpt lat="59.0902560856" lon="29.9917941727">
        <ele>126.07</ele>
        <time>2026-04-22T12:39:09.000Z</time>
      </trkpt>
      <trkpt lat="59.0904216282" lon="29.9918473978">
        <ele>126.07</ele>
        <time>2026-04-22T12:39:24.000Z</time>
      </trkpt>
      <trkpt lat="59.0906066168" lon="29.9918850325">
        <ele>126.55</ele>
        <time>2026-04-22T12:39:40.000Z</time>
      </trkpt>
      <trkpt lat="59.0907898452" lon="29.9919476453">
        <ele>125.59</ele>
        <time>2026-04-22T12:39:57.000Z</time>
      </trkpt>
      <trkpt lat="59.0908560622" lon="29.9919650797">
        <ele>125.59</ele>
        <time>2026-04-22T12:40:03.000Z</time>
      </trkpt>
      <trkpt lat="59.0910641011" lon="29.99199735">
        <ele>125.59</ele>
        <time>2026-04-22T12:40:19.000Z</time>
      </trkpt>
      <trkpt lat="59.0911213495" lon="29.9920707755">
        <ele>125.11</ele>
        <time>2026-04-22T12:40:25.000Z</time>
      </trkpt>
      <trkpt lat="59.0911979601" lon="29.9921234138">
        <ele>125.59</ele>
        <time>2026-04-22T12:40:31.000Z</time>
      </trkpt>
      <trkpt lat="59.0913922526" lon="29.9921416864">
        <ele>125.59</ele>
        <time>2026-04-22T12:40:46.000Z</time>
      </trkpt>
      <trkpt lat="59.0916322265" lon="29.9922417663">
        <ele>125.11</ele>
        <time>2026-04-22T12:41:03.000Z</time>
      </trkpt>
      <trkpt lat="59.0916595515" lon="29.99226138">
        <ele>125.11</ele>
        <time>2026-04-22T12:41:06.000Z</time>
      </trkpt>
      <trkpt lat="59.0917629842" lon="29.9923068937">
        <ele>126.07</ele>
        <time>2026-04-22T12:41:16.000Z</time>
      </trkpt>
      <trkpt lat="59.0917790774" lon="29.992329441">
        <ele>125.11</ele>
        <time>2026-04-22T12:41:33.000Z</time>
      </trkpt>
      <trkpt lat="59.0918101743" lon="29.9922291096">
        <ele>124.63</ele>
        <time>2026-04-22T12:42:13.000Z</time>
      </trkpt>
      <trkpt lat="59.09187329" lon="29.9918802548">
        <ele>125.11</ele>
        <time>2026-04-22T12:42:39.000Z</time>
      </trkpt>
      <trkpt lat="59.0918690152" lon="29.9918086734">
        <ele>124.63</ele>
        <time>2026-04-22T12:43:01.000Z</time>
      </trkpt>
      <trkpt lat="59.0919021238" lon="29.99175">
        <ele>125.59</ele>
        <time>2026-04-22T12:43:15.000Z</time>
      </trkpt>
      <trkpt lat="59.0918920655" lon="29.9918006267">
        <ele>124.63</ele>
        <time>2026-04-22T12:43:21.000Z</time>
      </trkpt>
      <trkpt lat="59.091897849" lon="29.9919375032">
        <ele>126.07</ele>
        <time>2026-04-22T12:43:35.000Z</time>
      </trkpt>
      <trkpt lat="59.0919340588" lon="29.9922555964">
        <ele>125.59</ele>
        <time>2026-04-22T12:43:57.000Z</time>
      </trkpt>
      <trkpt lat="59.0919578634" lon="29.9924039561">
        <ele>125.59</ele>
        <time>2026-04-22T12:44:13.000Z</time>
      </trkpt>
      <trkpt lat="59.0919876192" lon="29.9925819878">
        <ele>125.59</ele>
        <time>2026-04-22T12:44:31.000Z</time>
      </trkpt>
      <trkpt lat="59.0920270979" lon="29.9927071296">
        <ele>126.55</ele>
        <time>2026-04-22T12:44:46.000Z</time>
      </trkpt>
      <trkpt lat="59.0919763874" lon="29.9928504601">
        <ele>126.07</ele>
        <time>2026-04-22T12:44:58.000Z</time>
      </trkpt>
      <trkpt lat="59.0920477174" lon="29.9930204451">
        <ele>125.59</ele>
        <time>2026-04-22T12:45:19.000Z</time>
      </trkpt>
      <trkpt lat="59.0921472106" lon="29.9930158351">
        <ele>125.59</ele>
        <time>2026-04-22T12:45:33.000Z</time>
      </trkpt>
      <trkpt lat="59.0922203008" lon="29.9930150807">
        <ele>125.59</ele>
        <time>2026-04-22T12:45:40.000Z</time>
      </trkpt>
      <trkpt lat="59.0922445245" lon="29.9930216186">
        <ele>125.59</ele>
        <time>2026-04-22T12:45:42.000Z</time>
      </trkpt>
      <trkpt lat="59.0923834126" lon="29.9929660466">
        <ele>125.11</ele>
        <time>2026-04-22T12:45:56.000Z</time>
      </trkpt>
      <trkpt lat="59.0923924651" lon="29.9929585867">
        <ele>124.63</ele>
        <time>2026-04-22T12:45:57.000Z</time>
      </trkpt>
      <trkpt lat="59.0925690718" lon="29.9927464407">
        <ele>124.15</ele>
        <time>2026-04-22T12:46:17.000Z</time>
      </trkpt>
      <trkpt lat="59.0927343629" lon="29.9927466922">
        <ele>125.59</ele>
        <time>2026-04-22T12:46:34.000Z</time>
      </trkpt>
      <trkpt lat="59.0929176752" lon="29.9927369691">
        <ele>125.59</ele>
        <time>2026-04-22T12:46:51.000Z</time>
      </trkpt>
      <trkpt lat="59.0931158233" lon="29.9927720893">
        <ele>125.59</ele>
        <time>2026-04-22T12:47:09.000Z</time>
      </trkpt>
      <trkpt lat="59.0933102835" lon="29.992855154">
        <ele>126.07</ele>
        <time>2026-04-22T12:47:27.000Z</time>
      </trkpt>
      <trkpt lat="59.0933794342" lon="29.9925145973">
        <ele>126.55</ele>
        <time>2026-04-22T12:47:52.000Z</time>
      </trkpt>
      <trkpt lat="59.0933329985" lon="29.9921243358">
        <ele>126.55</ele>
        <time>2026-04-22T12:48:08.000Z</time>
      </trkpt>
      <trkpt lat="59.093299387" lon="29.9919211585">
        <ele>127.03</ele>
        <time>2026-04-22T12:48:15.000Z</time>
      </trkpt>
    </trkseg>
  </trk>
</gpx>
